Bulletin
Investor Alert

New York Markets Open in:

Earnings Calendar

SEARCH
No results found.
Sorry, this date currently does not have any earnings announcements scheduled.
Sorry, this date currently does not have any earnings announcements scheduled.
Sorry, this date currently does not have any earnings announcements scheduled.
Company Name Symbol Fiscal Quarter EPS Forecast EPS Actual Surprise
Biofrontera AG ADR BFRA 12/31/2019 -0.17 -0.03 +0.14 (-82.02%)
Koninklijke Philips N.V. ADR PHG 3/31/2020 0.21 0.20 -0.02 (-7.41%)
Vivendi S.A. ADR VIVHY 3/31/2020 0.25 0.25 Met
Kirkland Lake Gold Ltd. KL 3/31/2020 0.75 0.69 -0.06 (-8.06%)
Truist Financial Corp. TFC 3/31/2020 0.66 0.73 +0.07 (11.01%)
Anterix Inc. ATEX 3/31/2020 -0.51 -0.52 -0.01 (1.96%)
Braskem S/A ADR BAK 12/31/2019 -0.30 -0.52 -0.22 (71.32%)
Coca-Cola Femsa S.A.B. de C.V. ADR KOF 12/31/2019 12.90 9.50 -3.40 (-26.37%)
Ennis Inc. EBF 2/29/2020 0.35 0.33 -0.02 (-5.71%)
Muenchener Rueckversicherungs-Gesellschaft AG ADR MURGY 12/31/2019 0.17 0.17 +0.00 (0.01%)
Spark Energy Inc. SPKE 12/31/2019 0.05 N/A N/A
LATAM Airlines Group S.A. ADR LTM 12/31/2019 0.29 0.37 +0.08 (26.33%)
Hecla Mining Co. HL 3/31/2020 -0.01 -0.02 -0.01 (40.98%)
Agree Realty Corp. ADC 3/31/2020 0.45 0.46 +0.01 (2.98%)
M&T Bank Corp. MTB 3/31/2020 1.91 1.93 +0.02 (1.22%)
Community Bank System Inc. CBU 3/31/2020 0.73 0.80 +0.07 (9.37%)
Bank of Hawaii Corp. BOH 3/31/2020 0.74 0.87 +0.13 (18.18%)
Lumber Liquidators Holdings Inc. LL 3/31/2020 0.00 -0.02 -0.02 (-1299.76%)
Lennox International Inc. LII 3/31/2020 1.07 0.56 -0.51 (-47.72%)
GeoPark Ltd. GPRK 3/31/2020 0.26 0.26 Met
Mountain Province Diamonds Inc. MPVDF 3/31/2020 -0.02 0.01 +0.02 (-144.99%)
Halliburton Co. HAL 3/31/2020 0.25 0.31 +0.06 (26.13%)
Kforce Inc. KFRC 3/31/2020 0.36 0.42 +0.06 (15.14%)
Old National Bancorp ONB 3/31/2020 0.26 0.25 -0.01 (-3.85%)
Bank of Marin Bancorp BMRC 3/31/2020 0.51 0.53 +0.02 (3.11%)
Sierra Bancorp BSRR 3/31/2020 0.47 0.51 +0.04 (8.13%)
Ally Financial Inc. ALLY 3/31/2020 0.19 -0.44 -0.63 (-333.64%)
Infosys Ltd. ADR INFY 3/31/2020 0.13 0.14 +0.01 (5.47%)
Data443 Risk Mitigation Inc. ATDS 12/31/2019 0.00 N/A N/A
Sandvik AB ADR SDVKY 3/31/2020 0.17 0.15 -0.03 (-16.58%)
ServisFirst Bancshares Inc. SFBS 3/31/2020 0.63 0.64 +0.01 (2.24%)
Enterprise Financial Services Corp. EFSC 3/31/2020 0.75 0.48 -0.27 (-36.34%)
Cadence Design Systems Inc. CDNS 3/31/2020 0.54 0.60 +0.06 (10.87%)
Triumph Bancorp Inc. TBK 3/31/2020 0.29 -0.18 -0.47 (-163.16%)
International Business Machines Corp. IBM 3/31/2020 1.81 1.84 +0.03 (1.39%)
Zions Bancorp N.A. ZION 3/31/2020 0.56 0.04 -0.52 (-92.88%)
RBB Bancorp RBB 3/31/2020 0.43 0.35 -0.08 (-18.60%)
First Financial Bancorp (Ohio) FFBC 3/31/2020 0.39 0.29 -0.10 (-25.32%)
TriState Capital Holdings Inc. TSC 3/31/2020 0.26 0.38 +0.12 (46.15%)
Hexcel Corp. HXL 3/31/2020 0.71 0.64 -0.07 (-9.87%)
American Campus Communities Inc. ACC 3/31/2020 0.24 0.58 +0.34 (142.14%)
Gold Resource Corp. GORO 3/31/2020 0.16 0.16 Met
Equity Lifestyle Properties Inc. ELS 3/31/2020 0.37 0.37 Met
Metropolitan Bank Holding Corp. MCB 3/31/2020 0.72 0.72 Met
BancorpSouth Bank BXS 3/31/2020 0.33 0.21 -0.12 (-36.36%)
Crown Holdings Inc. CCK 3/31/2020 0.90 1.13 +0.23 (26.24%)
CNB Financial Corp. (Pennsylvania) CCNE 3/31/2020 0.55 0.57 +0.02 (4.31%)
Bryn Mawr Bank Corp. BMTC 3/31/2020 0.52 -0.56 -1.08 (-207.18%)
Equifax Inc. EFX 3/31/2020 1.29 1.40 +0.11 (8.65%)
Guaranty Bancshares Inc. GNTY 3/31/2020 0.42 0.55 +0.13 (29.92%)
Pinnacle Financial Partners Inc. PNFP 3/31/2020 1.05 0.39 -0.66 (-62.95%)
Steel Dynamics Inc. STLD 3/31/2020 0.79 0.85 +0.06 (7.60%)
LCNB Corp. LCNB 3/31/2020 0.31 0.39 +0.08 (25.81%)
Great Southern Bancorp Inc. GSBC 3/31/2020 0.95 1.04 +0.09 (9.47%)
Company Name Symbol Fiscal Quarter EPS Forecast EPS Actual Surprise
Bezeq The Israeli Telecommunication Corp. Ltd. ADR BZQIY 12/31/2019 0.06 0.06 Met
SAP SE ADR SAP 3/31/2020 1.02 0.92 -0.09 (-9.25%)
Teck Resources Ltd. Cl B TECK 3/31/2020 0.11 0.12 +0.01 (12.08%)
Coca-Cola Co. KO 3/31/2020 0.44 0.51 +0.07 (14.86%)
Entegris Inc. ENTG 3/31/2020 0.52 0.55 +0.03 (6.53%)
Mercantile Bank Corp. MBWM 3/31/2020 0.46 0.65 +0.19 (40.69%)
First Horizon National Corp. FHN 3/31/2020 0.31 0.04 -0.27 (-86.95%)
Peoples Bancorp Inc. (Ohio) PEBO 3/31/2020 0.52 0.00 -0.52 (-99.44%)
Fifth Third Bancorp FITB 3/31/2020 0.34 0.04 -0.30 (-88.24%)
Synchrony Financial SYF 3/31/2020 -0.31 0.45 +0.76 (-246.29%)
Graphic Packaging Holding Co. GPK 3/31/2020 0.25 0.31 +0.06 (25.89%)
Dover Corp. DOV 3/31/2020 1.20 1.39 +0.19 (15.66%)
Snap-On Inc. SNA 3/31/2020 2.70 2.60 -0.10 (-3.59%)
New Oriental Education & Technology Group Inc. ADR EDU 2/29/2020 0.76 0.86 +0.10 (13.01%)
PolyOne Corp. POL 3/31/2020 0.44 0.48 +0.04 (8.00%)
Emerson Electric Co. EMR 3/31/2020 0.77 0.89 +0.12 (16.13%)
Computer Task Group Inc. CTG 3/31/2020 -0.05 0.10 +0.15 (-300.00%)
Travelers Cos. Inc. TRV 3/31/2020 2.82 2.62 -0.20 (-7.15%)
Philip Morris International Inc. PM 3/31/2020 1.13 1.34 +0.21 (18.33%)
Stepan Co. SCL 3/31/2020 0.78 1.04 +0.26 (32.77%)
PacWest Bancorp PACW 3/31/2020 0.70 -12.23 -12.93 (-1835.91%)
Mueller Industries Inc. MLI 3/31/2020 0.51 0.57 +0.06 (11.76%)
Webster Financial Corp. WBS 3/31/2020 0.56 0.39 -0.17 (-29.92%)
Lockheed Martin Corp. LMT 3/31/2020 5.80 6.08 +0.28 (4.83%)
ManpowerGroup MAN 3/31/2020 0.83 0.71 -0.12 (-14.17%)
Prologis Inc. PLD 3/31/2020 0.36 0.70 +0.34 (95.86%)
BankFinancial Corp. BFIN 3/31/2020 0.17 0.16 -0.01 (-5.88%)
CIT Group Inc. CIT 3/31/2020 0.46 -6.40 -6.86 (-1490.13%)
Simmons First National Corp. Cl A SFNC 3/31/2020 0.44 0.65 +0.21 (47.17%)
HCA Healthcare Inc. HCA 3/31/2020 2.70 2.33 -0.37 (-13.58%)
Paccar Inc. PCAR 3/31/2020 1.21 1.03 -0.18 (-14.77%)
Heartland Express Inc. HTLD 3/31/2020 0.13 0.16 +0.03 (18.64%)
First Choice Bancorp FCBP 3/31/2020 0.50 0.39 -0.11 (-22.00%)
Northern Trust Corp. NTRS 3/31/2020 1.45 1.55 +0.10 (6.60%)
ASM International N.V. ASMIY 3/31/2020 1.66 1.66 0.00 (-0.07%)
Huaneng Power International Inc. ADR HNP 3/31/2020 1.11 0.62 -0.49 (-44.07%)
Stora Enso Oyj ADR SEOAY 3/31/2020 0.11 0.13 +0.02 (21.07%)
Grifols S.A. ADR GIKLY 3/31/2020 0.15 0.15 0.00 (-0.10%)
Grifols S.A. ADR GRFS 3/31/2020 0.29 0.29 0.00 (-0.10%)
Comerica Inc. CMA 3/31/2020 0.98 -0.46 -1.44 (-146.71%)
Trustco Bank Corp. TRST 3/31/2020 0.13 0.14 +0.01 (6.15%)
Carlisle Cos. CSL 3/31/2020 1.01 1.09 +0.08 (8.04%)
Orrstown Financial Services Inc. ORRF 3/31/2020 0.36 0.46 +0.10 (27.78%)
Interactive Brokers Group Inc. IBKR 3/31/2020 0.64 0.69 +0.05 (7.14%)
Texas Instruments Inc. TXN 3/31/2020 1.01 1.24 +0.23 (23.21%)
Nicolet Bankshares Inc. NCBS 3/31/2020 1.06 0.98 -0.08 (-7.33%)
Meridian Bancorp Inc. EBSB 3/31/2020 0.25 0.34 +0.09 (34.72%)
Chubb Ltd. CB 3/31/2020 2.56 2.68 +0.12 (4.51%)
Manhattan Associates Inc. MANH 3/31/2020 0.33 0.40 +0.07 (22.45%)
Healthcare Services Group Inc. HCSG 3/31/2020 0.26 0.27 +0.01 (4.09%)
Netflix Inc. NFLX 3/31/2020 1.64 1.57 -0.07 (-4.34%)
National Bank Holdings Corp. NBHC 3/31/2020 0.41 0.51 +0.10 (24.31%)
W.R. Berkley Corp. WRB 3/31/2020 0.73 0.69 -0.04 (-5.70%)
Snap Inc. SNAP 3/31/2020 -0.20 -0.21 -0.01 (4.51%)
Chipotle Mexican Grill Inc. CMG 3/31/2020 2.86 3.08 +0.22 (7.53%)
SouthCrest Financial Group Inc. SCSG 3/31/2020 0.16 0.13 -0.03 (-18.75%)
Pzena Investment Management Inc. PZN 3/31/2020 0.19 N/A N/A
USANA Health Sciences Inc. USNA 3/31/2020 0.84 1.23 +0.40 (47.31%)
Canadian Pacific Railway Ltd. CP 3/31/2020 4.13 4.42 +0.29 (6.95%)
Mitcham Industries Inc. MIND 1/31/2020 0.01 -0.32 -0.33 (-3285.22%)
BancFirst Corp. BANF 3/31/2020 0.82 0.68 -0.14 (-16.56%)
TFI International Inc. TFII 3/31/2020 0.51 0.58 +0.07 (14.07%)
RLI Corp. RLI 3/31/2020 0.64 0.66 +0.02 (3.81%)
Fulton Financial Corp. FULT 3/31/2020 0.00 0.16 +0.16 (5500.28%)
Teradyne Inc. TER 3/31/2020 0.88 1.00 +0.12 (14.03%)
Navient Corp. NAVI 3/31/2020 0.46 0.51 +0.05 (11.59%)
United Community Banks Inc. UCBI 3/31/2020 0.47 0.41 -0.06 (-13.23%)
Wintrust Financial Corp. WTFC 3/31/2020 0.74 1.04 +0.30 (39.83%)
Washington Federal Inc. WAFD 3/31/2020 0.52 0.49 -0.03 (-4.85%)
Company Name Symbol Fiscal Quarter EPS Forecast EPS Actual Surprise
Universal Stainless & Alloy Products Inc. USAP 3/31/2020 -0.06 N/A N/A
Interpublic Group of Cos. IPG 3/31/2020 0.09 N/A N/A
Akzo Nobel N.V. ADR AKZOY 3/31/2020 0.23 0.26 +0.03 (10.85%)
STMicroelectronics N.V. STM 3/31/2020 0.21 0.21 0.00 (-0.36%)
Axfood AB ADR AXFOY 3/31/2020 0.18 0.19 +0.01 (6.15%)
Randstad N.V. ADR RANJY 3/31/2020 0.28 0.31 +0.03 (11.17%)
Telefon AB L.M. Ericsson ADR ERIC 3/31/2020 0.07 0.06 -0.01 (-11.99%)
Evercore Inc. Cl A EVR 3/31/2020 1.10 1.21 +0.11 (9.89%)
FirstCash Inc. FCFS 3/31/2020 0.89 0.96 +0.07 (7.66%)
Thermo Fisher Scientific Inc. TMO 3/31/2020 2.81 2.94 +0.13 (4.62%)
Central Pacific Financial Corp. CPF 3/31/2020 0.29 0.29 Met
Wolverine World Wide Inc. WWW 3/31/2020 0.15 0.29 +0.14 (90.51%)
Quest Diagnostics Inc. DGX 3/31/2020 0.88 0.94 +0.06 (6.68%)
AT&T Inc. T 3/31/2020 0.85 0.84 -0.01 (-0.98%)
Teledyne Technologies Inc. TDY 3/31/2020 2.19 2.17 -0.02 (-0.91%)
Delta Air Lines Inc. DAL 3/31/2020 -0.51 -0.51 0.00 (0.84%)
Rogers Communications Inc. Cl B RCI 3/31/2020 0.57 0.50 -0.07 (-12.71%)
Baker Hughes Co. BKR 3/31/2020 0.11 0.11 0.00 (-0.58%)
Rogers Communications Inc. Cl A RCIAF 3/31/2020 0.57 0.50 -0.07 (-12.71%)
Stock Yards Bancorp Inc. SYBT 3/31/2020 0.54 0.59 +0.05 (9.77%)
Nasdaq Inc. NDAQ 3/31/2020 1.46 1.50 +0.04 (2.91%)
Lithia Motors Inc. Cl A LAD 3/31/2020 2.06 2.01 -0.05 (-2.43%)
Silgan Holdings Inc. SLGN 3/31/2020 0.50 0.57 +0.07 (14.81%)
Kimberly-Clark Corp. KMB 3/31/2020 1.96 2.13 +0.17 (8.92%)
NextEra Energy Inc. NEE 3/31/2020 2.27 2.38 +0.11 (4.80%)
BOK Financial Corp. BOKF 3/31/2020 1.34 0.88 -0.46 (-34.28%)
Amphenol Corp. Cl A APH 3/31/2020 0.74 0.71 -0.03 (-3.68%)
Cambridge Bancorp CATC 3/31/2020 1.28 1.37 +0.10 (7.45%)
NextEra Energy Partners LP NEP 3/31/2020 0.19 -3.39 -3.58 (-1843.38%)
Biogen Inc. BIIB 3/31/2020 7.69 9.14 +1.45 (18.80%)
Knight-Swift Transportation Holdings Inc. Cl A KNX 3/31/2020 0.36 0.44 +0.08 (23.64%)
Sleep Number Corp. SNBR 3/31/2020 0.72 1.36 +0.64 (88.76%)
TD Ameritrade Holding Corp. AMTD 3/31/2020 0.88 0.86 -0.02 (-1.76%)
Echo Global Logistics Inc. ECHO 3/31/2020 0.20 0.19 -0.01 (-3.41%)
CSX Corp. CSX 3/31/2020 0.94 1.00 +0.06 (6.37%)
Texas Capital Bancshares Inc. TCBI 3/31/2020 0.99 -0.38 -1.37 (-138.54%)
Monarch Casino & Resort Inc. MCRI 3/31/2020 0.30 0.11 -0.19 (-63.83%)
AXT Inc. AXTI 3/31/2020 -0.05 -0.01 +0.04 (-78.84%)
Interpace Biosciences Inc. IDXG 12/31/2019 -0.65 -2.88 -2.23 (341.38%)
Streamline Health Solutions Inc. STRM 1/31/2020 -0.05 -0.08 -0.03 (60.00%)
Preferred Bank Los Angeles PFBC 3/31/2020 1.02 1.08 +0.06 (6.09%)
Kinder Morgan Inc. KMI 3/31/2020 0.25 0.24 -0.01 (-3.24%)
Lam Research Corp. LRCX 3/31/2020 3.90 3.98 +0.08 (2.13%)
Las Vegas Sands Corp. LVS 3/31/2020 0.08 -0.02 -0.10 (-125.31%)
Seagate Technology PLC STX 3/31/2020 1.30 1.38 +0.08 (6.35%)
NETGEAR Inc. NTGR 3/31/2020 0.18 0.21 +0.03 (18.64%)
Phreesia Inc. PHR 1/31/2020 -0.10 -0.10 0.00 (2.56%)
Alcoa Corp. AA 3/31/2020 -0.24 -0.23 +0.01 (-5.18%)
Graco Inc. GGG 3/31/2020 0.45 0.38 -0.07 (-15.54%)
Globe Life Inc. GL 3/31/2020 1.72 1.73 +0.01 (0.51%)
Eagle Bancorp Inc. EGBN 3/31/2020 0.90 0.70 -0.20 (-22.22%)
Plexus Corp. PLXS 3/31/2020 0.56 0.61 +0.05 (8.28%)
Univest Financial Corp. UVSP 3/31/2020 0.41 0.03 -0.38 (-92.62%)
Umpqua Holdings Corp. UMPQ 3/31/2020 0.26 -0.13 -0.39 (-149.29%)
Meta Financial Group Inc. CASH 3/31/2020 1.58 1.45 -0.13 (-8.23%)
Landstar System Inc. LSTR 3/31/2020 1.11 1.04 -0.07 (-5.94%)
Moelis & Co. MC 3/31/2020 0.40 0.45 +0.05 (12.20%)
Fidelity National Financial Inc. FNF 3/31/2020 0.60 0.73 +0.13 (22.25%)
Retail Opportunity Investment Corp. ROIC 3/31/2020 0.09 -2.50 -2.59 (-2948.45%)
Boston Beer Co. Cl A SAM 3/31/2020 1.92 1.49 -0.43 (-22.36%)
Icon PLC ICLR 3/31/2020 1.69 1.70 +0.01 (0.77%)
TechnipFMC PLC FTI 3/31/2020 0.22 -0.11 -0.33 (-150.86%)
Ring Energy Inc. REI 3/31/2020 0.07 0.07 -0.01 (-12.29%)
Sun Communities Inc. SUI 3/31/2020 0.20 0.17 -0.03 (-12.82%)
Northeast Bank NBN 3/31/2020 0.39 0.21 -0.18 (-46.15%)
Xilinx Inc. XLNX 3/31/2020 0.65 0.65 0.00 (-0.10%)
Stewart Information Services Corp. STC 3/31/2020 -0.02 0.22 +0.24 (-1419.97%)
Origin Bancorp Inc. OBNK 3/31/2020 0.40 0.03 -0.37 (-92.54%)
SLM Corp. SLM 3/31/2020 0.73 0.79 +0.06 (7.81%)
O'Reilly Automotive Inc. ORLY 3/31/2020 4.05 3.97 -0.08 (-1.93%)
Coeur Mining Inc. CDE 3/31/2020 -0.01 0.00 +0.01 (-100.00%)
HNI Corp. HNI 3/31/2020 -0.06 0.21 +0.27 (-481.82%)
Live Oak Bancshares Inc. LOB 3/31/2020 0.08 -0.19 -0.27 (-337.50%)
Universal Forest Products Inc. UFPI 3/31/2020 0.62 0.70 +0.08 (13.40%)
CVB Financial Corp. CVBF 3/31/2020 0.31 0.27 -0.04 (-13.83%)
First Internet Bancorp INBK 3/31/2020 0.55 0.62 +0.07 (11.91%)
Martin Midstream Partners L.P. MMLP 3/31/2020 0.13 0.22 +0.09 (73.68%)
First Foundation Inc. FFWM 3/31/2020 0.29 0.29 +0.00 (1.40%)
SL Green Realty Corp. SLG 3/31/2020 0.45 1.47 +1.03 (230.34%)
Core Laboratories N.V. CLB 3/31/2020 0.35 0.31 -0.04 (-10.67%)
Empire State Realty Trust Inc. Cl A ESRT 3/31/2020 0.01 0.02 +0.01 (100.00%)
NewMarket Corp. NEU 3/31/2020 6.11 7.67 +1.56 (25.53%)
Cohen & Steers Inc. CNS 3/31/2020 0.64 0.61 -0.03 (-5.18%)
People's Utah Bancorp PUB 3/31/2020 0.47 0.57 +0.10 (21.28%)
Old Second Bancorp Inc. OSBC 3/31/2020 0.22 0.01 -0.21 (-95.45%)
First Industrial Realty Trust Inc. FR 3/31/2020 0.20 0.32 +0.12 (61.36%)
Valmont Industries Inc. VMI 3/31/2020 1.34 1.99 +0.65 (48.23%)
Discover Financial Services DFS 3/31/2020 0.72 -0.25 -0.97 (-134.70%)
Rush Enterprises Inc. Cl B RUSHB 3/31/2020 0.40 0.62 +0.22 (54.04%)
Rush Enterprises Inc. Cl A RUSHA 3/31/2020 0.40 0.62 +0.22 (54.04%)
NorthWestern Corp. NWE 3/31/2020 1.27 1.06 -0.21 (-16.70%)
Brandywine Realty Trust BDN 3/31/2020 0.03 0.04 +0.01 (46.65%)
Helix Energy Solutions Group Inc. HLX 3/31/2020 -0.14 -0.05 +0.10 (-68.13%)
Polyus PJSC ADR OPYGY 3/31/2020 1.62 1.35 -0.27 (-16.66%)
Company Name Symbol Fiscal Quarter EPS Forecast EPS Actual Surprise
Bankinter S.A. ADR BKNIY 3/31/2020 0.11 0.15 +0.04 (32.13%)
Dassault Systemes SE ADR DASTY 3/31/2020 1.03 1.03 +0.00 (0.15%)
Kungsleden AB ADR KGSDY 3/31/2020 0.06 0.07 +0.01 (14.97%)
Swedbank AB ADR SWDBY 3/31/2020 0.08 0.21 +0.13 (166.12%)
SKF AB ADR SKFRY 3/31/2020 0.28 0.34 +0.06 (23.21%)
Credit Suisse Group AG ADR CS 3/31/2020 0.36 0.53 +0.17 (48.40%)
Volvo AB ADR VLVLY 3/31/2020 0.21 0.23 +0.02 (8.61%)
Canon Inc. ADR CAJ 3/31/2020 0.12 0.19 +0.07 (63.00%)
PGS ASA ADR PGSVY 3/31/2020 -0.05 -0.15 -0.10 (227.36%)
PGS ASA PGEJF 3/31/2020 -0.05 -0.15 -0.10 (227.36%)
Yara International ASA ADR YARIY 3/31/2020 0.25 0.20 -0.05 (-19.78%)
Mail.ru Group Ltd. GDR MLRYY 3/31/2020 -0.09 0.14 +0.23 (-254.83%)
OMRON Corp. ADR OMRNY 3/31/2020 0.21 0.18 -0.03 (-15.74%)
China Life Insurance Co. Ltd. ADR LFC 3/31/2020 0.27 0.42 +0.15 (57.58%)
Signature Bank SBNY 3/31/2020 2.39 1.88 -0.51 (-21.21%)
Allegion PLC ALLE 3/31/2020 0.89 1.04 +0.15 (16.34%)
F.N.B. Corp. FNB 3/31/2020 0.13 0.16 +0.03 (24.89%)
Air Products & Chemicals Inc. APD 3/31/2020 2.09 2.04 -0.05 (-2.25%)
Sequans Communications S.A. ADR SQNS 3/31/2020 -0.30 -0.36 -0.06 (21.37%)
West Pharmaceutical Services Inc. WST 3/31/2020 0.82 1.01 +0.19 (22.87%)
Chart Industries Inc. GTLS 3/31/2020 0.51 0.57 +0.06 (12.03%)
Patterson-UTI Energy Inc. PTEN 3/31/2020 -0.46 -0.45 +0.01 (-1.74%)
Eli Lilly & Co. LLY 3/31/2020 1.48 1.75 +0.27 (18.29%)
China CITIC Bank ADR CHCJY 3/31/2020 0.93 0.76 -0.17 (-18.04%)
Herc Holdings Inc. HRI 3/31/2020 -0.24 0.04 +0.28 (-116.37%)
Centogene N.V. CNTG 12/31/2019 -0.16 -0.31 -0.14 (88.37%)
PulteGroup Inc. PHM 3/31/2020 0.70 0.74 +0.04 (5.22%)
LSI Industries Inc. LYTS 3/31/2020 -0.04 -0.04 Met
Arch Coal Inc. ARCH 3/31/2020 -1.13 -1.60 -0.47 (42.16%)
MarineMax Inc. HZO 3/31/2020 0.19 0.23 +0.04 (18.38%)
Gorman-Rupp Co. GRC 3/31/2020 0.34 0.25 -0.09 (-26.47%)
First American Financial Corp. FAF 3/31/2020 1.02 0.55 -0.47 (-46.08%)
Reliance Steel & Aluminum Co. RS 3/31/2020 2.10 2.45 +0.35 (16.69%)
INVESCO Ltd. IVZ 3/31/2020 0.52 0.34 -0.18 (-34.27%)
Capital City Bank Group Inc. CCBG 3/31/2020 0.39 0.25 -0.14 (-35.34%)
Hershey Co. HSY 3/31/2020 1.71 1.63 -0.08 (-4.80%)
Old Dominion Freight Line Inc. ODFL 3/31/2020 1.12 1.11 -0.01 (-0.74%)
Pool Corp. POOL 3/31/2020 0.64 0.71 +0.07 (11.71%)
Ardagh Group S.A. Cl A ARD 3/31/2020 0.29 0.31 +0.02 (5.19%)
Crocs Inc. CROX 3/31/2020 0.31 0.22 -0.09 (-29.32%)
Alfa Laval AB ADR ALFVY 3/31/2020 0.28 0.24 -0.03 (-12.47%)
Tractor Supply Co. TSCO 3/31/2020 0.69 0.71 +0.02 (3.42%)
American National Bankshares Inc. AMNB 3/31/2020 0.63 0.77 +0.14 (22.87%)
Huntington Bancshares Inc. HBAN 3/31/2020 0.17 0.03 -0.14 (-82.22%)
Alliance Data Systems Corp. ADS 3/31/2020 2.72 0.75 -1.97 (-72.41%)
FirstService Corp. FSV 3/31/2020 0.32 0.37 +0.05 (14.87%)
Watsco Inc. Cl B WSO.B 3/31/2020 0.86 0.72 -0.14 (-16.06%)
Watsco Inc. WSO 3/31/2020 0.86 0.72 -0.14 (-16.06%)
Safehold Inc. SAFE 3/31/2020 0.38 0.36 -0.02 (-4.09%)
Domino's Pizza Inc. DPZ 3/31/2020 2.32 3.07 +0.75 (32.30%)
WNS (Holdings) Ltd. ADR WNS 3/31/2020 0.74 0.82 +0.08 (10.78%)
Materion Corp. MTRN 3/31/2020 0.44 0.43 -0.01 (-1.53%)
Citrix Systems Inc. CTXS 3/31/2020 1.17 1.73 +0.56 (47.39%)
Union Pacific Corp. UNP 3/31/2020 1.90 2.15 +0.25 (13.09%)
East West Bancorp Inc. EWBC 3/31/2020 0.97 1.00 +0.03 (3.59%)
W.W. Grainger Inc. GWW 3/31/2020 4.46 4.24 -0.22 (-4.84%)
First Merchants Corp. FRME 3/31/2020 0.61 0.62 +0.01 (1.36%)
CTS Corp. CTS 3/31/2020 0.18 0.19 +0.01 (7.55%)
Republic Bancorp Inc. (Kentucky) Cl A RBCAA 3/31/2020 1.22 1.28 +0.06 (4.92%)
West Bancorp Inc. WTBA 3/31/2020 0.45 0.49 +0.04 (8.89%)
GAIN Capital Holdings Inc. GCAP 3/31/2020 0.69 2.09 +1.40 (202.90%)
Old Republic International Corp. ORI 3/31/2020 0.32 0.47 +0.15 (45.85%)
Guaranty Federal Bancshares Inc. GFED 3/31/2020 0.41 0.49 +0.08 (19.51%)
NVR Inc. NVR 3/31/2020 45.61 44.96 -0.65 (-1.42%)
1st Source Corp. SRCE 3/31/2020 0.78 0.64 -0.14 (-17.95%)
Sandy Spring Bancorp Inc. SASR 3/31/2020 0.65 0.28 -0.37 (-56.92%)
Blackstone Group Inc. BX 3/31/2020 0.51 0.46 -0.05 (-9.56%)
Atlas Copco AB Series B ADR ATLCY 3/31/2020 0.30 0.31 +0.01 (2.72%)
Atlas Copco AB ADR ATLKY 3/31/2020 0.30 0.31 +0.01 (2.72%)
Cargotec Oyj ADR CYJBY 3/31/2020 0.14 0.10 -0.04 (-28.26%)
LG Display Co. Ltd. ADR LPL 3/31/2020 -0.36 -0.23 +0.13 (-37.01%)
KB Financial Group Inc. ADR KB 3/31/2020 1.65 1.52 -0.13 (-7.59%)
Valeo S.A. ADR VLEEY 3/31/2020 0.09 0.09 0.00 (-5.07%)
CyberOptics Corp. CYBE 3/31/2020 0.02 0.11 +0.09 (450.00%)
Controladora Vuela Compania de Aviacion S.A.B. de C.V. ADR VLRS 3/31/2020 -15.83 -17.03 -1.20 (7.55%)
FVCBankcorp Inc. FVCB 3/31/2020 0.25 0.25 +0.01 (2.04%)
Clearfield Inc. CLFD 3/31/2020 0.05 0.05 Met
Kimberly-Clark de Mexico S.A.B. de C.V. ADR KCDMY 3/31/2020 0.11 0.10 -0.01 (-6.60%)
Strattec Security Corp. STRT 3/31/2020 0.32 0.79 +0.47 (146.88%)
Merit Medical Systems Inc. MMSI 3/31/2020 0.26 0.38 +0.12 (46.15%)
Bank OZK OZK 3/31/2020 0.61 0.09 -0.52 (-85.33%)
People's United Financial Inc. PBCT 3/31/2020 0.24 0.33 +0.09 (36.65%)
CrossFirst Bankshares Inc. CFB 3/31/2020 0.17 0.07 -0.10 (-57.08%)
Limelight Networks Inc. LLNW 3/31/2020 0.00 0.00 +0.00 (-100.00%)
SEI Investments Co. SEIC 3/31/2020 0.77 0.72 -0.05 (-6.09%)
Bank of Princeton BPRN 3/31/2020 0.43 0.44 +0.01 (2.33%)
First Business Financial Services Inc. FBIZ 3/31/2020 0.45 0.38 -0.07 (-15.56%)
IDEX Corp. IEX 3/31/2020 1.30 1.33 +0.03 (2.46%)
Capital One Financial Corp. COF 3/31/2020 1.88 -3.02 -4.90 (-260.83%)
E*TRADE Financial Corp. ETFC 3/31/2020 0.91 0.82 -0.09 (-9.81%)
Forestar Group Inc. FOR 3/31/2020 0.16 0.20 +0.05 (29.03%)
First Financial Bankshares Inc. FFIN 3/31/2020 0.29 0.26 -0.03 (-9.09%)
Atlantic Capital Bancshares Inc. ACBI 3/31/2020 0.25 0.10 -0.15 (-59.68%)
Merchants Bancorp MBIN 3/31/2020 0.53 0.73 +0.20 (36.88%)
Vocera Communications Inc. VCRA 3/31/2020 -0.18 -0.14 +0.04 (-20.62%)
Skechers USA Inc. Cl A SKX 3/31/2020 0.39 0.39 0.00 (-1.08%)
VeriSign Inc. VRSN 3/31/2020 1.28 2.96 +1.68 (131.84%)
TRI Pointe Group Inc. TPH 3/31/2020 0.17 0.24 +0.07 (43.59%)
DMC Global Inc. BOOM 3/31/2020 0.40 0.35 -0.05 (-11.70%)
Vicor Corp. VICR 3/31/2020 0.05 -0.04 -0.09 (-176.19%)
LogMeIn Inc. LOGM 3/31/2020 1.25 1.21 -0.04 (-3.49%)
eHealth Inc. EHTH 3/31/2020 0.22 0.39 +0.17 (81.32%)
Independent Bank Corp. INDB 3/31/2020 1.19 0.78 -0.41 (-34.59%)
World Wrestling Entertainment Inc. Cl A WWE 3/31/2020 0.26 0.31 +0.05 (20.23%)
SB Financial Group Inc. SBFG 3/31/2020 0.24 0.31 +0.07 (29.17%)
Macatawa Bank Corp. MCBC 3/31/2020 0.17 0.19 +0.02 (11.76%)
Associated Banc-Corp. ASB 3/31/2020 0.11 0.28 +0.18 (166.67%)
Edwards Lifesciences Corp. EW 3/31/2020 1.32 1.51 +0.19 (14.77%)
Robert Half International Inc. RHI 3/31/2020 0.77 0.79 +0.02 (2.71%)
Employers Holdings Inc. EIG 3/31/2020 0.53 0.35 -0.18 (-34.18%)
FirstEnergy Corp. FE 3/31/2020 0.63 0.66 +0.03 (4.73%)
Midland States Bancorp Inc. MSBI 3/31/2020 0.55 0.06 -0.49 (-88.99%)
Ameris Bancorp ABCB 3/31/2020 0.76 0.56 -0.20 (-26.32%)
Glacier Bancorp Inc. GBCI 3/31/2020 0.49 0.46 -0.03 (-5.29%)
MamaMancini's Holdings Inc. MMMB 1/31/2020 0.02 0.01 -0.01 (-50.00%)
Grupo Aeroportuario del Sureste S.A.B. de C.V. ADR ASR 3/31/2020 43.65 62.81 +19.16 (43.91%)
OP Bancorp OPBK 3/31/2020 0.20 0.21 +0.01 (5.00%)
Intel Corp. INTC 3/31/2020 1.28 1.45 +0.17 (12.85%)
SVB Financial Group SIVB 3/31/2020 3.52 2.55 -0.97 (-27.53%)
South State Corp. SSB 3/31/2020 1.10 0.71 -0.39 (-35.36%)
CenterState Bank Corp. CSFL 3/31/2020 0.42 0.28 -0.14 (-33.65%)
Heritage Commerce Corp. HTBK 3/31/2020 0.13 0.03 -0.10 (-76.56%)
Investar Holding Corp. ISTR 3/31/2020 0.40 0.15 -0.25 (-62.31%)
MediciNova Inc. MNOV 3/31/2020 -0.08 -0.06 +0.02 (-25.00%)
Company Name Symbol Fiscal Quarter EPS Forecast EPS Actual Surprise
ARCADIS N.V. ARCAY 3/31/2020 0.22 N/A N/A
Pricer AB ADR PCRBY 3/31/2020 0.01 0.01 +0.00 (0.24%)
Bank of the Philippine Islands ADR BPHLY 3/31/2020 0.46 0.31 -0.14 (-31.42%)
POSCO ADR PKX 3/31/2020 0.59 0.98 +0.38 (64.36%)
Shinhan Financial Group Co. Ltd. ADR SHG 3/31/2020 1.45 1.55 +0.10 (6.79%)
OceanFirst Financial Corp. OCFC 3/31/2020 0.38 0.45 +0.07 (18.42%)
Southern Copper Corp. SCCO 3/31/2020 0.36 0.28 -0.08 (-21.34%)
BillerudKorsnaes AB ADR BLRDY 3/31/2020 0.19 0.16 -0.04 (-18.18%)
Air Liquide S.A. ADR AIQUY 3/31/2020 0.27 0.27 Met
Sanofi ADR SNY 3/31/2020 0.79 0.88 +0.09 (11.07%)
Advantest Corp. ADR ATEYY 3/31/2020 0.49 N/A N/A
Fanuc Corp. ADR FANUY 3/31/2020 0.07 0.08 +0.01 (10.27%)
Svenska Cellulosa AB ADR SVCBY 3/31/2020 0.07 0.07 -0.01 (-6.99%)
Castellum AB ADR CWQXY 3/31/2020 0.52 0.35 -0.17 (-32.76%)
Portland General Electric Co. POR 3/31/2020 0.90 0.91 +0.01 (1.45%)
Community Bankers Trust Corp. ESXB 3/31/2020 0.14 0.06 -0.08 (-58.14%)
Barnes Group Inc. B 3/31/2020 0.49 0.71 +0.22 (43.86%)
Synovus Financial Corp. SNV 3/31/2020 0.36 0.21 -0.15 (-41.19%)
Autoliv Inc. ALV 3/31/2020 0.73 0.88 +0.15 (21.10%)
Arrow Financial Corp. AROW 3/31/2020 0.59 0.54 -0.05 (-8.47%)
Fang Holdings Ltd. ADR SFUN 12/31/2019 0.02 -0.29 -0.31 (-1331.74%)
Moog Inc. Cl A MOG.A 3/31/2020 1.32 1.48 +0.16 (12.54%)
Moog Inc. Cl B MOG.B 3/31/2020 1.32 1.48 +0.16 (12.54%)
First Hawaiian Inc. FHB 3/31/2020 0.38 0.30 -0.08 (-21.71%)
Gentex Corp. GNTX 3/31/2020 0.34 0.36 +0.02 (4.52%)
Civista Bancshares Inc. CIVB 3/31/2020 0.48 0.48 0.00 (-0.83%)
Esquire Financial Holdings Inc. ESQ 3/31/2020 0.48 0.48 Met
Farmers & Merchants Bancorp Inc. FMAO 3/31/2020 0.37 0.37 Met
American Express Co. AXP 3/31/2020 1.46 0.41 -1.05 (-71.91%)
Verizon Communications Inc. VZ 3/31/2020 1.22 1.26 +0.04 (2.91%)
BayCom Corp. BCML 3/31/2020 0.47 0.41 -0.06 (-12.77%)
Aesthetic Medical International Holdings Group Ltd. ADR AIH 12/31/2019 1.19 0.10 -1.09 (-91.63%)
Freeport-McMoRan Inc. FCX 3/31/2020 -0.18 -0.16 +0.02 (-11.52%)
MetroCity Bankshares Inc. MCBS 3/31/2020 0.40 0.38 -0.02 (-5.00%)
Hyundai Motor Co. Ltd. GDR Pfd. 144A HYMPY 3/31/2020 0.53 0.54 +0.01 (1.77%)
Triton International Ltd. TRTN 3/31/2020 0.94 0.93 -0.01 (-1.06%)
Veoneer Inc. VNE 3/31/2020 -1.23 -2.09 -0.86 (70.07%)
ENI S.p.A. ADR E 3/31/2020 0.13 0.04 -0.09 (-67.28%)
FS Bancorp Inc. FSBW 3/31/2020 1.22 0.87 -0.35 (-28.39%)
Citizens Financial Services Inc. CZFS 3/31/2020 1.06 1.29 +0.23 (21.70%)
Company Name Symbol Fiscal Quarter EPS Forecast EPS Actual Surprise
Jiangsu Expressway Co. Ltd. ADR JEXYY 3/31/2020 0.24 0.10 -0.13 (-55.97%)
Jaguar Health Inc. JAGX 12/31/2019 -0.68 -0.68 Met
Taiwan Semiconductor Manufacturing Co. Ltd. ADR TSM 3/31/2020 0.74 0.75 +0.01 (1.02%)
Company Name Symbol Fiscal Quarter EPS Forecast EPS Actual Surprise
Kyocera Corp. ADR KYOCY 3/31/2020 0.37 0.17 -0.21 (-55.28%)
Renesas Electronics Corp. ADR RNECY 3/31/2020 0.01 0.03 +0.02 (215.65%)
AudioCodes Ltd. AUDC 3/31/2020 0.21 0.25 +0.04 (19.05%)
Bayer AG ADR BAYRY 3/31/2020 0.69 0.72 +0.04 (5.62%)
adidas AG ADR ADDYY 3/31/2020 0.66 0.07 -0.59 (-89.39%)
Nitto Denko Corp. ADR NDEKY 3/31/2020 0.19 0.13 -0.06 (-30.87%)
Central Japan Railway Co. ADR CJPRY 3/31/2020 0.12 0.05 -0.07 (-61.66%)
Anhui Conch Cement Co. Ltd. AHCHY 3/31/2020 0.77 0.66 -0.12 (-14.96%)
Check Point Software Technologies Ltd. CHKP 3/31/2020 1.38 1.42 +0.04 (2.90%)
United Microelectronics Corp. ADR UMC 3/31/2020 0.03 0.16 +0.12 (358.15%)
Astra International ADR PTAIY 3/31/2020 0.17 0.15 -0.02 (-10.65%)
Armstrong World Industries Inc. AWI 3/31/2020 1.11 1.10 -0.01 (-0.90%)
CNX Resources Corp. CNX 3/31/2020 0.14 0.61 +0.47 (342.40%)
CNX Midstream Partners LP CNXM 3/31/2020 0.50 0.49 -0.01 (-2.57%)
Dorman Products Inc. DORM 3/31/2020 0.64 0.66 +0.02 (2.48%)
Lexicon Pharmaceuticals Inc. LXRX 3/31/2020 -0.69 -0.63 +0.06 (-9.29%)
Affiliated Managers Group Inc. AMG 3/31/2020 3.08 3.16 +0.08 (2.53%)
CMS Energy Corp. CMS 3/31/2020 0.79 0.86 +0.07 (8.89%)
Lincoln Electric Holdings Inc. LECO 3/31/2020 1.00 1.00 0.00 (-0.32%)
Koppers Holdings Inc. KOP 3/31/2020 0.56 0.47 -0.09 (-16.07%)
Middlefield Banc Corp. MBCN 3/31/2020 0.34 0.16 -0.18 (-52.94%)
Lakeland Financial Corp. LKFN 3/31/2020 0.59 0.67 +0.08 (13.18%)
Washington Trust Bancorp Inc. WASH 3/31/2020 0.79 0.68 -0.11 (-13.49%)
HarborOne Bancorp HONE 3/31/2020 0.08 0.09 +0.01 (8.00%)
Towne Bank TOWN 3/31/2020 0.35 0.36 +0.01 (1.89%)
NIC Inc. EGOV 3/31/2020 0.19 0.18 -0.01 (-2.70%)
Northwest Bancshares Inc. NWBI 3/31/2020 0.17 0.07 -0.10 (-58.33%)
Coastal Financial Corp. CCB 3/31/2020 0.24 0.22 -0.02 (-8.33%)
Salisbury Bancorp Inc. SAL 3/31/2020 0.90 0.72 -0.18 (-19.55%)
SSAB AB ADR SSAAY 3/31/2020 0.01 0.01 0.00 (-3.21%)
Banner Corp. BANR 3/31/2020 0.67 0.47 -0.20 (-30.27%)
J&J Snack Foods Corp. JJSF 3/31/2020 0.81 0.38 -0.43 (-52.80%)
Heartland Financial USA Inc. HTLF 3/31/2020 0.75 0.54 -0.21 (-28.00%)
Canadian National Railway Co. CNI 3/31/2020 1.09 1.22 +0.13 (12.11%)
Mid Penn Bancorp Inc. MPB 3/31/2020 0.39 0.45 +0.06 (15.38%)
Heidrick & Struggles International Inc. HSII 3/31/2020 0.50 0.45 -0.05 (-10.35%)
Sanmina Corp. SANM 3/31/2020 0.55 0.32 -0.23 (-42.20%)
HomeStreet Inc. HMST 3/31/2020 0.31 0.34 +0.03 (8.97%)
Amkor Technology Inc. AMKR 3/31/2020 0.16 0.26 +0.10 (61.10%)
QTS Realty Trust Inc. Cl A QTS 3/31/2020 0.05 -0.01 -0.06 (-120.45%)
Gaia Inc. Cl A GAIA 3/31/2020 -0.16 -0.19 -0.03 (20.63%)
Avnet Inc. AVT 3/31/2020 0.32 0.38 +0.06 (20.25%)
F5 Networks Inc. FFIV 3/31/2020 1.98 2.23 +0.25 (12.48%)
Intevac Inc. IVAC 3/31/2020 -0.13 -0.05 +0.08 (-60.00%)
Cincinnati Financial Corp. CINF 3/31/2020 1.05 0.84 -0.21 (-19.69%)
Cognex Corp. CGNX 3/31/2020 0.08 0.12 +0.04 (59.07%)
PotlatchDeltic Corp. PCH 3/31/2020 0.11 0.22 +0.11 (107.55%)
Alexandria Real Estate Equities Inc. ARE 3/31/2020 0.64 0.14 -0.50 (-78.10%)
Keurig Dr Pepper Inc. KDP 3/31/2020 0.27 0.29 +0.02 (6.04%)
ONE Gas Inc. OGS 3/31/2020 1.79 1.72 -0.07 (-3.65%)
Comfort Systems USA Inc. FIX 3/31/2020 0.41 0.42 +0.01 (2.68%)
Universal Insurance Holdings Inc. UVE 3/31/2020 0.75 0.79 +0.04 (5.63%)
Impinj Inc. PI 3/31/2020 -0.06 0.13 +0.19 (-316.67%)
FB Financial Corp. FBK 3/31/2020 0.54 0.17 -0.37 (-68.40%)
Sterling Bancorp STL 3/31/2020 0.32 -0.02 -0.34 (-106.28%)
WesBanco Inc. WSBC 3/31/2020 0.58 0.41 -0.17 (-28.96%)
NBT Bancorp Inc. NBTB 3/31/2020 0.52 0.24 -0.27 (-52.81%)
Northrim BanCorp Inc. NRIM 3/31/2020 0.47 0.16 -0.31 (-65.96%)
Park National Corp. PRK 3/31/2020 1.39 1.40 +0.01 (1.08%)
Principal Financial Group Inc. PFG 3/31/2020 1.12 1.15 +0.03 (2.89%)
Celanese Corp. CE 3/31/2020 2.25 2.29 +0.04 (1.75%)
Simpson Manufacturing Co. SSD 3/31/2020 0.62 0.83 +0.21 (34.41%)
Harmonic Inc. HLIT 3/31/2020 -0.05 -0.10 -0.05 (94.44%)
Knoll Inc. KNL 3/31/2020 0.34 0.40 +0.06 (17.65%)
Universal Health Services Inc. Cl B UHS 3/31/2020 2.58 1.73 -0.85 (-33.04%)
Franklin Financial Network Inc. FSB 3/31/2020 0.62 -0.08 -0.70 (-112.90%)
PPG Industries Inc. PPG 3/31/2020 1.17 1.19 +0.02 (1.60%)
Alpine Income Property Trust Inc. PINE 3/31/2020 0.06 0.00 -0.06 (-97.69%)
BCB Bancorp Inc. BCBP 3/31/2020 0.22 0.12 -0.10 (-45.45%)
WSFS Financial Corp. WSFS 3/31/2020 0.69 0.23 -0.46 (-66.86%)
Cathay General Bancorp CATY 3/31/2020 0.67 0.59 -0.08 (-11.94%)
TCF Financial Corp. TCF 3/31/2020 0.49 0.57 +0.08 (15.76%)
K12 Inc. LRN 3/31/2020 0.20 0.22 +0.02 (10.00%)
First Bank (NJ) FRBA 3/31/2020 0.23 0.16 -0.07 (-28.89%)
OneMain Holdings Inc. OMF 3/31/2020 0.76 0.33 -0.43 (-56.31%)
HealthStream Inc. HSTM 3/31/2020 0.13 0.22 +0.09 (69.23%)
Luxfer Holdings PLC LXFR 3/31/2020 0.25 0.30 +0.05 (21.99%)
X Financial ADR XYF 12/31/2019 0.11 0.03 -0.08 (-73.21%)
Brown & Brown Inc. BRO 3/31/2020 0.46 0.51 +0.05 (11.15%)
Packaging Corp. of America PKG 3/31/2020 1.22 1.50 +0.28 (22.66%)
Crane Co. CR 3/31/2020 1.26 1.15 -0.11 (-8.46%)
Cresco Labs Inc. CRLBF 12/31/2019 -0.02 -0.08 -0.05 (201.56%)
Reliant Bancorp Inc. RBNC 3/31/2020 0.30 0.25 -0.05 (-16.20%)
CapStar Financial Holdings Inc. CSTR 3/31/2020 0.25 0.08 -0.17 (-68.25%)
NXP Semiconductors N.V. NXPI 3/31/2020 1.37 1.48 +0.10 (7.47%)
Meridian Corp. MRBK 3/31/2020 0.23 0.39 +0.16 (69.57%)
Independent Bank Group Inc. IBTX 3/31/2020 1.06 1.01 -0.05 (-4.72%)
Apergy Corp. APY 3/31/2020 0.06 0.04 -0.02 (-34.05%)
National Oilwell Varco Inc. NOV 3/31/2020 0.09 -0.47 -0.56 (-613.62%)
Company Name Symbol Fiscal Quarter EPS Forecast EPS Actual Surprise
AllianceBernstein Holding L.P. AB 3/31/2020 0.59 N/A N/A
Zebra Technologies Corp. Cl A ZBRA 3/31/2020 2.66 N/A N/A
Wal-Mart de Mexico S.A.B. de C.V. ADR WMMVY 3/31/2020 0.24 N/A N/A
Yandex N.V. Cl A YNDX 3/31/2020 22.14 N/A N/A
Iridium Communications Inc. IRDM 3/31/2020 -0.12 N/A N/A
Embotelladora Andina S.A. (Series B) ADR AKO.B 3/31/2020 0.30 N/A N/A
Embotelladora Andina S.A. (Series A) ADR AKO.A 3/31/2020 0.30 N/A N/A
Oxford Square Capital Corp. OXSQ 3/31/2020 0.19 N/A N/A
NeoGenomics Inc. NEO 3/31/2020 0.02 N/A N/A
SINOPEC Shanghai Petrochemical Co. Ltd. ADR SHI 3/31/2020 -0.02 N/A N/A
Aluminum Corp. of China Ltd. ADR ACH 3/31/2020 0.13 N/A N/A
Bank of Communications Co. Ltd. ADR BCMXY 3/31/2020 1.12 N/A N/A
Industrial & Commercial Bank of China Ltd. ADR IDCBY 3/31/2020 0.74 N/A N/A
Yanzhou Coal Mining Co. Ltd. ADR YZCAY 3/31/2020 0.56 N/A N/A
China Construction Bank Corp. ADR CICHY 3/31/2020 0.92 N/A N/A
Guangshen Railway Co. Ltd. ADR GSH 3/31/2020 0.20 N/A N/A
Atlantia S.p.A. ADR ATASY 12/31/2019 0.32 N/A N/A
SmartFinancial Inc. SMBK 3/31/2020 0.33 N/A N/A
Polaris Inc. PII 3/31/2020 0.56 N/A N/A
Camden National Corp. CAC 3/31/2020 0.71 N/A N/A
Santander Consumer USA Holdings Inc. SC 3/31/2020 0.15 N/A N/A
Telenor ASA ADR TELNY 3/31/2020 0.23 N/A N/A
Novartis AG ADR NVS 3/31/2020 1.39 N/A N/A
Corning Inc. GLW 3/31/2020 0.18 N/A N/A
Banco Santander S.A. ADR SAN 3/31/2020 0.07 N/A N/A
Santander Bank Polska S.A. ADR BKZHY 3/31/2020 0.18 N/A N/A
MSCI Inc. MSCI 3/31/2020 1.70 N/A N/A
Griffon Corp. GFF 3/31/2020 0.19 N/A N/A
Akbank T.A.S. ADR New144A AKBDY 3/31/2020 0.14 N/A N/A
Akbank T.A.S. ADR AKBTY 3/31/2020 0.14 N/A N/A
Alphabet Inc. Cl C GOOG 3/31/2020 10.66 N/A N/A
Alphabet Inc. Cl A GOOGL 3/31/2020 10.65 N/A N/A
Cummins Inc. CMI 3/31/2020 2.18 N/A N/A
PJT Partners Inc. PJT 3/31/2020 0.60 N/A N/A
Grupo Televisa S.A.B. ADR TV 3/31/2020 -0.25 -0.68 -0.43 (170.13%)
HSBC Holdings PLC ADR (Rep 1/4 of a share of 6.2% Non-Cum. Pfd. Series A) HSBC.PRA 3/31/2020 0.40 0.27 -0.13 (-32.50%)
HSBC Holdings PLC ADR HSBC 3/31/2020 0.67 0.45 -0.22 (-32.50%)
UBS Group AG UBS 3/31/2020 0.40 0.43 +0.03 (6.72%)
ABB Ltd. ADR ABB 3/31/2020 0.16 N/A N/A
TietoEVRY Oyj ADR TCYBY 3/31/2020 0.22 N/A N/A
Yamazaki Baking Co. Ltd. ADR YMZBY 3/31/2020 1.56 1.27 -0.29 (-18.57%)
NTT Docomo Inc. ADR DCMYY 3/31/2020 0.12 0.12 Met
ANA Holdings Inc. ADR ALNPY 3/31/2020 -0.14 -0.14 Met
BP PLC ADR BP 3/31/2020 0.23 N/A N/A
LINE Corp. ADR LN 3/31/2020 -0.13 -0.32 -0.19 (146.98%)
Coca-Cola European Partners PLC CCEP 3/31/2020 0.41 0.41 Met
Commerce Bancshares Inc. CBSH 3/31/2020 0.70 N/A N/A
Centene Corp. CNC 3/31/2020 0.98 N/A N/A
PepsiCo Inc. PEP 3/31/2020 1.03 N/A N/A
Boliden AB ADR BDNNY 3/31/2020 0.82 N/A N/A
Southwest Airlines Co. LUV 3/31/2020 -0.30 N/A N/A
Xerox Holdings Corp. XRX 3/31/2020 0.34 N/A N/A
3M Co. MMM 3/31/2020 2.03 N/A N/A
Flagstar Bancorp Inc. FBC 3/31/2020 0.77 N/A N/A
Caterpillar Inc. CAT 3/31/2020 1.74 N/A N/A
Pfizer Inc. PFE 3/31/2020 0.73 N/A N/A
Merck & Co. Inc. MRK 3/31/2020 1.34 N/A N/A
Waters Corp. WAT 3/31/2020 1.45 N/A N/A
First Commonwealth Financial Corp. (Pennsylvania) FCF 3/31/2020 0.20 N/A N/A
United Parcel Service Inc. Cl B UPS 3/31/2020 1.25 N/A N/A
Sirius XM Holdings Inc. SIRI 3/31/2020 0.05 N/A N/A
Colliers International Group Inc. CIGI 3/31/2020 0.48 N/A N/A
TransUnion TRU 3/31/2020 0.68 N/A N/A
S&P Global Inc. SPGI 3/31/2020 2.30 N/A N/A
Affimed N.V. AFMD 12/31/2019 -0.19 N/A N/A
T. Rowe Price Group Inc. TROW 3/31/2020 1.71 N/A N/A
Turning Point Brands Inc. TPB 3/31/2020 0.47 N/A N/A
Franklin Electric Co. Inc. FELE 3/31/2020 0.19 N/A N/A
Nucor Corp. NUE 3/31/2020 0.95 N/A N/A
Banco Santander (Brasil) S.A. ADR BSBR 3/31/2020 0.18 N/A N/A
Omnicom Group Inc. OMC 3/31/2020 1.16 N/A N/A
IQVIA Holdings Inc. IQV 3/31/2020 1.49 N/A N/A
Shutterstock Inc. SSTK 3/31/2020 0.32 N/A N/A
Ecolab Inc. ECL 3/31/2020 1.06 N/A N/A
TAL Education Group ADR TAL 2/29/2020 0.05 N/A N/A
Atlantic Union Bankshares Corp. AUB 3/31/2020 0.52 N/A N/A
Pacific Premier Bancorp Inc. PPBI 3/31/2020 0.47 N/A N/A
Dime Community Bancshares DCOM 3/31/2020 0.31 N/A N/A
D.R. Horton Inc. DHI 3/31/2020 1.11 N/A N/A
Provident Financial Holdings Inc. PROV 3/31/2020 0.30 N/A N/A
Sharps Compliance Corp. SMED 3/31/2020 -0.04 N/A N/A
Harley-Davidson Inc. HOG 3/31/2020 0.60 N/A N/A
TE Connectivity Ltd. TEL 3/31/2020 1.02 N/A N/A
Rockwell Automation Corp. ROK 3/31/2020 1.82 N/A N/A
Roper Technologies Inc. ROP 3/31/2020 2.92 N/A N/A
Amerant Bancorp Inc. Cl A AMTB 3/31/2020 0.18 N/A N/A
Anixter International Inc. AXE 3/31/2020 1.47 N/A N/A
Waddell & Reed Financial Inc. WDR 3/31/2020 0.31 N/A N/A
DTE Energy Co. DTE 3/31/2020 1.74 N/A N/A
Turkcell Iletisim Hizmetleri A.S. ADR TKC 3/31/2020 0.15 N/A N/A
Encompass Health Corp. EHC 3/31/2020 0.87 N/A N/A
Silicon Motion Technology Corp. ADR SIMO 3/31/2020 0.67 N/A N/A
American Assets Trust Inc. AAT 3/31/2020 0.31 N/A N/A
Blackstone Mortgage Trust Inc. Cl A BXMT 3/31/2020 0.64 N/A N/A
Lattice Semiconductor Corp. LSCC 3/31/2020 0.14 N/A N/A
America Movil S.A.B. de C.V. ADR AMOV 3/31/2020 -0.13 N/A N/A
America Movil S.A.B. de C.V. ADR Series L AMX 3/31/2020 -0.81 N/A N/A
Gladstone Commercial Corp. GOOD 3/31/2020 -0.02 N/A N/A
DexCom Inc. DXCM 3/31/2020 0.15 N/A N/A
MRC Global Inc. MRC 3/31/2020 -0.07 N/A N/A
Grupo Aeroportuario del Centro Norte S.A.B. de C.V. ADR OMAB 3/31/2020 15.24 N/A N/A
TriNet Group Inc. TNET 3/31/2020 0.92 N/A N/A
Encore Wire Corp. WIRE 3/31/2020 0.53 N/A N/A
Chemed Corp. CHE 3/31/2020 3.69 N/A N/A
TERNIUM S.A. ADR TX 3/31/2020 0.42 N/A N/A
Community Health Systems Inc. CYH 3/31/2020 -0.56 N/A N/A
Masimo Corp. MASI 3/31/2020 0.90 N/A N/A
FARO Technologies Inc. FARO 3/31/2020 -1.01 N/A N/A
KKR Real Estate Finance Trust Inc. KREF 3/31/2020 0.42 N/A N/A
Boyd Gaming Corp. BYD 3/31/2020 0.28 N/A N/A
Vale S.A. ADR VALE 3/31/2020 0.21 N/A N/A
Donegal Group Inc. Cl A DGICA 3/31/2020 0.32 N/A N/A
ONEOK Inc. OKE 3/31/2020 0.80 N/A N/A
Medpace Holdings Inc. MEDP 3/31/2020 0.75 N/A N/A
Donegal Group Inc. Cl B DGICB 3/31/2020 0.32 N/A N/A
Unisys Corp. UIS 3/31/2020 -0.20 N/A N/A
Systemax Inc. SYX 3/31/2020 0.27 N/A N/A
CoStar Group Inc. CSGP 3/31/2020 2.27 N/A N/A
Rocky Brands Inc. RCKY 3/31/2020 0.47 N/A N/A
R.R. Donnelley & Sons Co. RRD 3/31/2020 -0.02 N/A N/A
PRGX Global Inc. PRGX 3/31/2020 -0.10 N/A N/A
WW International Inc. WW 3/31/2020 -0.24 N/A N/A
Vermilion Energy Inc. VET 3/31/2020 -0.03 N/A N/A
Helen of Troy Corp. HELE 2/29/2020 1.67 N/A N/A
Hancock Whitney Corp. HWC 3/31/2020 0.76 N/A N/A
Bright Scholar Education Holdings Ltd. ADR BEDU 2/29/2020 0.00 N/A N/A
First Defiance Financial Corp. FDEF 3/31/2020 0.51 N/A N/A
Renasant Corp. RNST 3/31/2020 0.55 N/A N/A
QCR Holdings Inc. QCRH 3/31/2020 0.76 N/A N/A
Hope Bancorp Inc. HOPE 3/31/2020 0.24 N/A N/A
Juniper Networks Inc. JNPR 3/31/2020 0.25 N/A N/A
Trustmark Corp. TRMK 3/31/2020 0.44 N/A N/A
C.H. Robinson Worldwide Inc. CHRW 3/31/2020 0.69 N/A N/A
MicroStrategy Inc. MSTR 3/31/2020 0.30 N/A N/A
Maxim Integrated Products Inc. MXIM 3/31/2020 0.58 N/A N/A
Accuray Inc. ARAY 3/31/2020 -0.04 N/A N/A
Veritex Holdings Inc. VBTX 3/31/2020 0.49 N/A N/A
Boston Properties Inc. BXP 3/31/2020 0.84 N/A N/A
UMB Financial Corp. UMBF 3/31/2020 0.87 N/A N/A
Mercury Systems Inc. MRCY 3/31/2020 0.52 N/A N/A
Alerus Financial Corp. ALRS 3/31/2020 0.32 N/A N/A
MKS Instruments Inc. MKSI 3/31/2020 1.24 N/A N/A
Meritage Homes Corp. MTH 3/31/2020 1.13 N/A N/A
Enova International Inc. ENVA 3/31/2020 1.36 N/A N/A
Industrias Bachoco S.A.B. de C.V. ADR IBA 3/31/2020 0.40 N/A N/A
Cerner Corp. CERN 3/31/2020 0.70 N/A N/A
Tenable Holdings Ltd. TENB 3/31/2020 -0.19 N/A N/A
O-I Glass Inc. OI 3/31/2020 0.40 N/A N/A
Highwoods Properties Inc. HIW 3/31/2020 0.34 N/A N/A
FireEye Inc. FEYE 3/31/2020 -0.04 N/A N/A
Monolithic Power Systems Inc. MPWR 3/31/2020 0.94 N/A N/A
iRobot Corp. IRBT 3/31/2020 -0.41 N/A N/A
Paycom Software Inc. PAYC 3/31/2020 1.27 N/A N/A
Werner Enterprises Inc. WERN 3/31/2020 0.35 N/A N/A
Liberty Oilfield Services Inc. LBRT 3/31/2020 -0.06 N/A N/A
Akamai Technologies Inc. AKAM 3/31/2020 1.16 N/A N/A
Starbucks Corp. SBUX 3/31/2020 0.34 N/A N/A
Mondelez International Inc. Cl A MDLZ 3/31/2020 0.66 N/A N/A
Ford Motor Co. F 3/31/2020 -0.08 N/A N/A
Advanced Micro Devices Inc. AMD 3/31/2020 0.18 N/A N/A
Avangrid Inc. AGR 3/31/2020 0.75 N/A N/A
Artisan Partners Asset Management Inc. APAM 3/31/2020 0.62 N/A N/A
Yum China Holdings Inc. YUMC 3/31/2020 -0.20 N/A N/A
Seacoast Banking Corp. of Florida SBCF 3/31/2020 0.40 N/A N/A
First Busey Corp. BUSE 3/31/2020 0.40 N/A N/A
Calix Inc. CALX 3/31/2020 -0.07 N/A N/A
Flushing Financial Corp. FFIC 3/31/2020 0.33 N/A N/A
Hanover Insurance Group Inc. THG 3/31/2020 2.03 N/A N/A
Company Name Symbol Fiscal Quarter EPS Forecast EPS Actual Surprise
MobileIron Inc. MOBL 3/31/2020 -0.07 N/A N/A
ASE Technology Holding Co. Ltd. ADR ASX 3/31/2020 0.05 N/A N/A
Criteo S.A. ADR CRTO 3/31/2020 0.46 N/A N/A
Alkermes PLC ALKS 3/31/2020 -0.05 N/A N/A
Tenaris S.A. ADR TS 3/31/2020 0.23 N/A N/A
KBR Inc. KBR 3/31/2020 0.37 N/A N/A
Grupo Aeroportuario del Pacifico S.A.B. de C.V. ADR PAC 3/31/2020 1.04 N/A N/A
Clean Harbors Inc. CLH 3/31/2020 0.09 N/A N/A
LivaNova PLC LIVN 3/31/2020 0.56 N/A N/A
Digimarc Corp. DMRC 3/31/2020 -0.71 N/A N/A
Wrap Technologies Inc. WRTC 3/31/2020 -0.09 N/A N/A
Bolsas y Mercados Espanoles S.A. ADR BOLYY 3/31/2020 0.21 N/A N/A
Volkswagen AG ADR Pfd. VWAPY 3/31/2020 12.05 N/A N/A
China Coal Energy Co. Ltd. ADR CCOZY 3/31/2020 0.08 N/A N/A
PetroChina Co. Ltd. ADR PTR 3/31/2020 -0.28 N/A N/A
Bank of China Ltd. ADR BACHY 3/31/2020 0.69 N/A N/A
China Petroleum & Chemical Corp. ADR SNP 3/31/2020 0.00 N/A N/A
China Southern Airlines Co. Ltd. ADR ZNH 3/31/2020 -1.77 N/A N/A
Datang International Power Generation Co. Ltd. ADR DIPGY 3/31/2020 0.09 N/A N/A
Jiangxi Copper Co. Ltd. ADR JIXAY 3/31/2020 0.56 N/A N/A
Jiangxi Copper Co. Ltd. JIAXF 3/31/2020 0.01 N/A N/A
China Communications Construction Co. Ltd. ADR CCCGY 3/31/2020 1.33 N/A N/A
BYD Co. Ltd. ADR BYDDY 3/31/2020 0.06 N/A N/A
Turkiye Garanti Bankasi A.S. ADR TKGBY 3/31/2020 0.10 N/A N/A
Magnit GDR 144A MGJCL 3/31/2020 0.05 N/A N/A
Volkswagen AG 1/10th ADR VWAGY 3/31/2020 0.12 N/A N/A
Banc of California Inc. BANC 3/31/2020 0.07 N/A N/A
Cadence Bancorp. CADE 3/31/2020 0.18 N/A N/A
Keppel Corp. Ltd. ADR KPELY 3/31/2020 0.15 N/A N/A
Novozymes A/S ADR NVZMY 3/31/2020 0.40 N/A N/A
Silicon Laboratories Inc. SLAB 3/31/2020 0.52 N/A N/A
Rollins Inc. ROL 3/31/2020 0.13 N/A N/A
General Electric Co. GE 3/31/2020 0.08 N/A N/A
Cimpress PLC CMPR 3/31/2020 0.84 N/A N/A
Deutsche Bank AG DB 3/31/2020 -0.11 N/A N/A
Samsung Electronics Co. Ltd. GDR Pfd. 144A SSNGY 3/31/2020 12.37 N/A N/A
LG Electronics Inc. New Sp GDR 144A Nv LGEJY 3/31/2020 1.07 N/A N/A
OMV AG ADR OMVKY 3/31/2020 1.08 N/A N/A
Norsk Hydro ASA ADR NHYDY 3/31/2020 0.02 N/A N/A
Daimler AG DDAIF 3/31/2020 0.49 N/A N/A
Scor S.E. ADR SCRYY 3/31/2020 0.07 N/A N/A
Barclays PLC ADR BCS 3/31/2020 0.26 N/A N/A
AstraZeneca PLC ADR AZN 3/31/2020 0.45 N/A N/A
Oersted A/S ADR DNNGY 3/31/2020 0.26 N/A N/A
Assa Abloy AB ADR ASAZY 3/31/2020 0.09 N/A N/A
Iberdrola S.A. ADR IBDRY 3/31/2020 0.73 N/A N/A
Naturgy Energy Group S.A. ADR GASNY 3/31/2020 0.08 N/A N/A
Sensata Technologies Holding PLC ST 3/31/2020 0.57 N/A N/A
Anthem Inc. ANTM 3/31/2020 6.46 N/A N/A
Spotify Technology S.A. SPOT 3/31/2020 -0.49 N/A N/A
Humana Inc. HUM 3/31/2020 4.66 N/A N/A
Boston Scientific Corp. BSX 3/31/2020 0.33 N/A N/A
Hasbro Inc. HAS 3/31/2020 0.69 N/A N/A
Avery Dennison Corp. AVY 3/31/2020 1.50 N/A N/A
Sensient Technologies Corp. SXT 3/31/2020 0.66 N/A N/A
Masco Corp. MAS 3/31/2020 0.36 N/A N/A
CME Group Inc. Cl A CME 3/31/2020 2.23 N/A N/A
Cowen Inc. Cl A COWN 3/31/2020 0.57 N/A N/A
Sonic Automotive Inc. Cl A SAH 3/31/2020 0.25 N/A N/A
American Tower REIT AMT 3/31/2020 1.06 N/A N/A
Oshkosh Corp. OSK 3/31/2020 1.37 N/A N/A
General Dynamics Corp. GD 3/31/2020 2.62 N/A N/A
New York Community Bancorp Inc. NYCB 3/31/2020 0.16 N/A N/A
Celestica Inc. CLS 3/31/2020 0.11 N/A N/A
GlaxoSmithKline PLC ADR GSK 3/31/2020 0.74 N/A N/A
Mastech Digital Inc. MHH 3/31/2020 0.18 N/A N/A
Yum! Brands Inc. YUM 3/31/2020 0.68 N/A N/A
Boeing Co. BA 3/31/2020 -1.58 N/A N/A
Norfolk Southern Corp. NSC 3/31/2020 2.25 N/A N/A
Legg Mason Inc. LM 3/31/2020 0.87 N/A N/A
Federal Signal Corp. FSS 3/31/2020 0.34 N/A N/A
M/I Homes Inc. MHO 3/31/2020 0.71 N/A N/A
Euronet Worldwide Inc. EEFT 3/31/2020 0.75 N/A N/A
Ryder System Inc. R 3/31/2020 -0.82 N/A N/A
New Gold Inc. NGD 3/31/2020 -0.03 N/A N/A
Laboratory Corp. of America Holdings LH 3/31/2020 2.15 N/A N/A
SiteOne Landscape Supply Inc. SITE 3/31/2020 -0.56 N/A N/A
Blue Apron Holdings Inc. APRN 3/31/2020 -1.54 N/A N/A
Fresh Del Monte Produce Inc. FDP 3/31/2020 0.57 N/A N/A
Owens Corning OC 3/31/2020 0.54 N/A N/A
Garmin Ltd. GRMN 3/31/2020 0.86 N/A N/A
Constellium SE CSTM 3/31/2020 0.21 N/A N/A
Dine Brands Global Inc. DIN 3/31/2020 1.49 N/A N/A
United Therapeutics Corp. UTHR 3/31/2020 2.72 N/A N/A
Coca-Cola Femsa S.A.B. de C.V. ADR KOF 3/31/2020 14.96 N/A N/A
Husky Energy Inc. HUSKF 3/31/2020 -0.27 N/A N/A
MDC Partners Inc. Cl A MDCA 3/31/2020 -0.09 N/A N/A
Strategic Education Inc. STRA 3/31/2020 1.88 N/A N/A
Tupperware Brands Corp. TUP 3/31/2020 0.30 N/A N/A
AZZ Inc. AZZ 2/29/2020 0.50 N/A N/A
BankUnited Inc. BKU 3/31/2020 0.50 N/A N/A
Littelfuse Inc. LFUS 3/31/2020 0.97 N/A N/A
Prosperity Bancshares Inc. PB 3/31/2020 1.15 N/A N/A
RPC Inc. RES 3/31/2020 -0.07 N/A N/A
Banco Santander-Chile ADR BSAC 3/31/2020 0.36 N/A N/A
Marine Products Corp. MPX 3/31/2020 0.21 N/A N/A
Silvergate Capital Corp. SI 3/31/2020 0.19 N/A N/A
Brinker International Inc. EAT 3/31/2020 0.77 N/A N/A
MarketAxess Holdings Inc. MKTX 3/31/2020 1.90 N/A N/A
CGI Inc. Cl A GIB 3/31/2020 0.88 N/A N/A
OFG Bancorp OFG 3/31/2020 0.43 N/A N/A
Mastercard Inc. MA 3/31/2020 1.74 N/A N/A
Automatic Data Processing Inc. ADP 3/31/2020 1.92 N/A N/A
Valero Energy Corp. VLO 3/31/2020 -0.17 N/A N/A
Enterprise Products Partners L.P. EPD 3/31/2020 0.52 N/A N/A
Capitol Federal Financial Inc. CFFN 3/31/2020 0.14 N/A N/A
Sherwin-Williams Co. SHW 3/31/2020 3.91 N/A N/A
Northrop Grumman Corp. NOC 3/31/2020 5.51 N/A N/A
Saia Inc. SAIA 3/31/2020 0.81 N/A N/A
Belden Inc. BDC 3/31/2020 0.67 N/A N/A
Summit Materials Inc. Cl A SUM 3/31/2020 -0.49 N/A N/A
nVent Electric PLC NVT 3/31/2020 0.38 N/A N/A
Benchmark Electronics Inc. BHE 3/31/2020 0.19 N/A N/A
Century Communities Inc. CCS 3/31/2020 0.64 N/A N/A
Avantor Inc. AVTR 3/31/2020 0.15 N/A N/A
Albany International Corp. Cl A AIN 3/31/2020 0.62 N/A N/A
Primerica Inc. PRI 3/31/2020 1.95 N/A N/A
Cenovus Energy Inc. CVE 3/31/2020 -0.21 N/A N/A
Tyler Technologies Inc. TYL 3/31/2020 1.25 N/A N/A
Antero Midstream Corp. AM 3/31/2020 0.22 N/A N/A
Paramount Group Inc. PGRE 3/31/2020 0.01 N/A N/A
Pluralsight Inc. Cl A PS 3/31/2020 -0.13 N/A N/A
Urban Edge Properties UE 3/31/2020 0.06 N/A N/A
Antero Resources Corp. AR 3/31/2020 0.03 N/A N/A
Pegasystems Inc. PEGA 3/31/2020 0.01 N/A N/A
Kadant Inc. KAI 3/31/2020 0.83 N/A N/A
FTS International Inc. FTSI 3/31/2020 -0.06 N/A N/A
Annaly Capital Management Inc. NLY 3/31/2020 0.24 N/A N/A
Transocean Ltd. RIG 3/31/2020 -0.29 N/A N/A
Service Corp. International SCI 3/31/2020 0.49 N/A N/A
PS Business Parks Inc. PSB 3/31/2020 0.93 N/A N/A
ManTech International Corp. Cl A MANT 3/31/2020 0.65 N/A N/A
Alamos Gold Inc. AGI 3/31/2020 0.06 N/A N/A
Inovalon Holdings Inc. Cl A INOV 3/31/2020 0.12 N/A N/A
Ultra Clean Holdings Inc. UCTT 3/31/2020 0.41 N/A N/A
AMERISAFE Inc. AMSF 3/31/2020 0.78 N/A N/A
Warrior Met Coal Inc. HCC 3/31/2020 0.52 N/A N/A
Brightcove Inc. BCOV 3/31/2020 0.02 N/A N/A
CyrusOne Inc. CONE 3/31/2020 0.01 N/A N/A
Trinity Industries Inc. TRN 3/31/2020 0.15 N/A N/A
John Bean Technologies Corp. JBT 3/31/2020 0.74 N/A N/A
Gildan Activewear Inc. GIL 3/31/2020 0.13 N/A N/A
National General Holdings Corp. NGHC 3/31/2020 0.82 N/A N/A
National General Holdings Corp. Dep. Pfd. (Rep. 1/40th Non-Cum. Perp. Pfd. Series B) NGHCO 3/31/2020 0.82 N/A N/A
Pilgrim's Pride Corp. PPC 3/31/2020 0.17 N/A N/A
James River Group Holdings Ltd. JRVR 3/31/2020 0.45 N/A N/A
McGrath RentCorp MGRC 3/31/2020 0.73 N/A N/A
Matador Resources Co. MTDR 3/31/2020 0.04 N/A N/A
Teladoc Health Inc. TDOC 3/31/2020 -0.36 N/A N/A
Crown Castle International Corp. CCI 3/31/2020 0.49 N/A N/A
Aegion Corp. AEGN 3/31/2020 0.04 N/A N/A
Kraton Corp. KRA 3/31/2020 -0.02 N/A N/A
Orion Group Holdings Inc. ORN 3/31/2020 -0.10 N/A N/A
Churchill Downs Inc. CHDN 3/31/2020 0.23 N/A N/A
Enviva Partners LP EVA 3/31/2020 0.30 N/A N/A
QEP Resources Inc. QEP 3/31/2020 -0.01 N/A N/A
Cactus Inc. Cl A WHD 3/31/2020 0.35 N/A N/A
Forterra Inc. FRTA 3/31/2020 -0.23 N/A N/A
Heritage-Crystal Clean Inc. HCCI 3/31/2020 0.14 N/A N/A
MYR Group Inc. MYRG 3/31/2020 0.53 N/A N/A
Howard Bancorp Inc. HBMD 3/31/2020 0.22 N/A N/A
PTC Inc. PTC 3/31/2020 0.44 N/A N/A
Raymond James Financial Inc. RJF 3/31/2020 1.58 N/A N/A
Equity Bancshares Inc. Cl A EQBK 3/31/2020 0.51 N/A N/A
MACOM Technology Solutions Holdings Inc. MTSI 3/31/2020 0.10 N/A N/A
Hologic Inc. HOLX 3/31/2020 0.57 N/A N/A
Duke Realty Corp. DRE 3/31/2020 0.11 N/A N/A
Align Technology Inc. ALGN 3/31/2020 1.08 N/A N/A
John B. Sanfilippo & Son Inc. JBSS 3/31/2020 0.66 N/A N/A
Axos Financial Inc. AX 3/31/2020 0.89 N/A N/A
Spirit of Texas Bancshares Inc. STXB 3/31/2020 0.31 N/A N/A
Tesla Inc. TSLA 3/31/2020 -0.34 N/A N/A
Brookline Bancorp Inc. BRKL 3/31/2020 0.24 N/A N/A
Bridge Bancorp Inc. BDGE 3/31/2020 0.56 N/A N/A
Cree Inc. CREE 3/31/2020 -0.15 N/A N/A
Capstead Mortgage Corp. CMO 3/31/2020 0.15 N/A N/A
Horizon Bancorp Inc. HBNC 3/31/2020 0.33 N/A N/A
CONMED Corp. CNMD 3/31/2020 0.54 N/A N/A
AGNC Investment Corp. AGNC 3/31/2020 0.40 N/A N/A
United Rentals Inc. URI 3/31/2020 2.82 N/A N/A
Banco Santander Mexico, S.A., Institucion de Banca Multiple, Grupo Financiero Santander Mexico ADR BSMX 3/31/2020 0.17 N/A N/A
Fair Isaac Corp. FICO 3/31/2020 1.71 N/A N/A
Evans Bancorp Inc. EVBN 3/31/2020 0.75 N/A N/A
Vertex Pharmaceuticals Inc. VRTX 3/31/2020 1.80 N/A N/A
Ingevity Corp. NGVT 3/31/2020 0.80 N/A N/A
Kilroy Realty Corp. KRC 3/31/2020 0.32 N/A N/A
PC Connection Inc. CNXN 3/31/2020 0.55 N/A N/A
AFLAC Inc. AFL 3/31/2020 1.10 N/A N/A
Olin Corp. OLN 3/31/2020 -0.26 N/A N/A
MaxLinear Inc. MXL 3/31/2020 0.07 N/A N/A
Qualcomm Inc. QCOM 3/31/2020 0.79 N/A N/A
Surmodics Inc. SRDX 3/31/2020 -0.14 N/A N/A
Rayonier Inc. RYN 3/31/2020 0.07 N/A N/A
TTM Technologies Inc. TTMI 3/31/2020 0.06 N/A N/A
Medical Properties Trust Inc. MPW 3/31/2020 0.28 N/A N/A
AtriCure Inc. ATRC 3/31/2020 -0.41 N/A N/A
Archer Daniels Midland Co. ADM 3/31/2020 0.56 N/A N/A
Facebook Inc. Cl A FB 3/31/2020 1.74 N/A N/A
Microsoft Corp. MSFT 3/31/2020 1.28 N/A N/A
ServiceNow Inc. NOW 3/31/2020 0.96 N/A N/A
eBay Inc. EBAY 3/31/2020 0.72 N/A N/A
Tetra Tech Inc. TTEK 3/31/2020 0.72 N/A N/A
CACI International Inc. Cl A CACI 3/31/2020 3.15 N/A N/A
Kearny Financial Corp. KRNY 3/31/2020 0.11 N/A N/A
Hartford Financial Services Group Inc. HIG 3/31/2020 1.33 N/A N/A
MSA Safety Inc. MSA 3/31/2020 0.94 N/A N/A
ATN International Inc. ATNI 3/31/2020 0.01 N/A N/A
Companhia de Transmissao de Energia Eletrica Paulista ADR CTPZY 3/31/2020 0.14 N/A N/A
Companhia de Transmissao de Energia Eletrica Paulista ADR CTPTY 3/31/2020 0.14 N/A N/A
Boston Private Financial Holdings Inc. BPFH 3/31/2020 0.16 N/A N/A
Investors Bancorp Inc. ISBC 3/31/2020 0.22 N/A N/A
Company Name Symbol Fiscal Quarter EPS Forecast EPS Actual Surprise
2U Inc. TWOU 3/31/2020 -0.46 N/A N/A
Fortive Corp. FTV 3/31/2020 0.71 N/A N/A
AU Optronics Corp. ADR AUOTY 3/31/2020 -0.16 N/A N/A
Hanesbrands Inc. HBI 3/31/2020 0.13 N/A N/A
Goodyear Tire & Rubber Co. GT 3/31/2020 -0.17 N/A N/A
Novolipetsk Steel GDR 144A NISQY 3/31/2020 0.14 N/A N/A
Atomera Inc. ATOM 3/31/2020 -0.16 N/A N/A
Agios Pharmaceuticals Inc. AGIO 3/31/2020 -1.67 N/A N/A
Orange ADR ORAN 3/31/2020 0.26 N/A N/A
Orange FNCTF 3/31/2020 0.26 N/A N/A
Imax Corp. IMAX 3/31/2020 -0.10 N/A N/A
Syneos Health Inc. Cl A SYNH 3/31/2020 0.64 N/A N/A
Swiss Re Ltd. ADR SSREY 3/31/2020 0.30 N/A N/A
Emergent Biosolutions Inc. EBS 3/31/2020 0.01 N/A N/A
Proximus Group ADR BGAOY 3/31/2020 0.08 N/A N/A
Lantheus Holdings Inc. LNTH 3/31/2020 0.27 N/A N/A
Insmed Inc. INSM 3/31/2020 -0.71 N/A N/A
Mr. Cooper Group Inc. COOP 3/31/2020 0.98 N/A N/A
Public Storage PSA 3/31/2020 1.70 N/A N/A
ORBCOMM Inc. ORBC 3/31/2020 -0.07 N/A N/A
Verona Pharma PLC ADR VRNA 3/31/2020 -0.80 N/A N/A
Nielsen Holdings PLC NLSN 3/31/2020 0.34 N/A N/A
Perrigo Co. PLC PRGO 3/31/2020 1.03 N/A N/A
CRA International Inc. CRAI 3/31/2020 0.66 N/A N/A
Erste Group Bank AG ADR EBKDY 3/31/2020 0.28 N/A N/A
PTC Therapeutics Inc. PTCT 3/31/2020 -1.29 N/A N/A
Andritz AG ADR ADRZY 3/31/2020 0.09 N/A N/A
Corvus Pharmaceuticals Inc. CRVS 3/31/2020 -0.40 N/A N/A
Baxter International Inc. BAX 3/31/2020 0.73 N/A N/A
Fuchs Petrolub SE Pfd. ADR FUPBY 3/31/2020 0.09 N/A N/A
BeyondSpring Inc. BYSI 12/31/2019 -0.43 N/A N/A
Abiomed Inc. ABMD 3/31/2020 0.93 N/A N/A
Comcast Corp. Cl A CMCSA 3/31/2020 0.69 N/A N/A
Great Western Bancorp Inc. GWB 3/31/2020 0.62 N/A N/A
Silicom Ltd. SILC 3/31/2020 0.33 N/A N/A
CBTX Inc. CBTX 3/31/2020 0.40 N/A N/A
Tokyo Electron Ltd. ADR TOELY 3/31/2020 0.66 N/A N/A
Royal KPN N.V. ADR KKPNY 3/31/2020 0.03 N/A N/A
Lazard Ltd. LAZ 3/31/2020 0.66 N/A N/A
Meritor Inc. MTOR 3/31/2020 0.42 N/A N/A
National Instruments Corp. NATI 3/31/2020 0.51 N/A N/A
Amgen Inc. AMGN 3/31/2020 3.74 N/A N/A
Denso Corp. ADR DNZOY 3/31/2020 0.36 N/A N/A
Toto Ltd. ADR TOTDY 3/31/2020 0.33 N/A N/A
Seiko Epson Corp. ADR SEKEY 3/31/2020 0.04 N/A N/A
West Japan Railway Co. ADR WJRYY 3/31/2020 0.17 N/A N/A
Banco Bilbao Vizcaya Argentaria S.A. ADR BBVA 3/31/2020 0.12 N/A N/A
Carlyle Group Inc. CG 3/31/2020 0.41 N/A N/A
Dunkin' Brands Group Inc. DNKN 3/31/2020 0.62 N/A N/A
Total S.A. ADR TOT 3/31/2020 0.68 N/A N/A
Tapestry Inc. TPR 3/31/2020 0.00 N/A N/A
Tsingtao Brewery Co. Ltd. ADR TSGTY 3/31/2020 0.28 N/A N/A
DBS Group Holdings Ltd. ADR DBSDY 3/31/2020 1.26 N/A N/A
Kulicke & Soffa Industries Inc. KLIC 3/31/2020 0.18 N/A N/A
BE Semiconductor Industries N.V. ADR BESIY 3/31/2020 0.17 N/A N/A
BASF SE ADR BASFY 3/31/2020 0.34 N/A N/A
Banco de Sabadell S.A. ADR BNDSY 3/31/2020 0.02 N/A N/A
Nokia Corp. ADR NOK 3/31/2020 0.01 N/A N/A
Swisscom AG ADR SCMWY 3/31/2020 0.70 N/A N/A
PTT Exploration & Production PCL ADR PEXNY 3/31/2020 0.15 N/A N/A
Lloyds Banking Group PLC ADR LYG 3/31/2020 0.00 N/A N/A
Subsea 7 S.A. ACGYF 3/31/2020 0.02 N/A N/A
Subsea 7 S.A. ADR SUBCY 3/31/2020 0.02 N/A N/A
Royal Dutch Shell PLC ADR B RDS.B 3/31/2020 0.56 N/A N/A
Royal Dutch Shell PLC ADR Cl A RDS.A 3/31/2020 0.56 N/A N/A
ResMed Inc. RMD 3/31/2020 1.03 N/A N/A
Danske Bank A/S ADR DNKEY 3/31/2020 0.05 N/A N/A
Japan Tobacco Inc. ADR JAPAY 3/31/2020 0.22 N/A N/A
Nidec Corp. ADR NJDCY 3/31/2020 0.28 N/A N/A
Chunghwa Telecom Co. Ltd. ADR CHT 3/31/2020 0.33 N/A N/A
Sberbank Rossia ADR SBRCY 3/31/2020 0.64 N/A N/A
Atresmedia Corp. de Medios de Comunicacion S.A. ADR ATVDY 3/31/2020 0.11 N/A N/A
Janus Henderson Group PLC JHG 3/31/2020 0.53 N/A N/A
LKQ Corp. LKQ 3/31/2020 0.51 N/A N/A
Millicom International Cellular S.A. TIGO 3/31/2020 0.18 N/A N/A
Dow Inc. DOW 3/31/2020 0.59 N/A N/A
Wesco International Inc. WCC 3/31/2020 0.96 N/A N/A
W.R. Grace & Co. GRA 3/31/2020 0.68 N/A N/A
Armada Hoffler Properties Inc. AHH 3/31/2020 0.12 N/A N/A
Cemex S.A.B. de C.V. ADR CX 3/31/2020 0.01 N/A N/A
Materialise N.V. ADR MTLS 3/31/2020 -0.01 N/A N/A
Bio-Techne Corp. TECH 3/31/2020 1.15 N/A N/A
Cigna Corp. CI 3/31/2020 4.34 N/A N/A
Church & Dwight Co. CHD 3/31/2020 0.78 N/A N/A
Resolute Forest Products Inc. RFP 3/31/2020 -0.33 N/A N/A
Altria Group Inc. MO 3/31/2020 0.98 N/A N/A
ConocoPhillips COP 3/31/2020 0.19 N/A N/A
Twitter Inc. TWTR 3/31/2020 0.10 N/A N/A
Endurance International Group Holdings Inc. EIGI 3/31/2020 -0.02 N/A N/A
On Deck Capital Inc. ONDK 3/31/2020 0.00 N/A N/A
Molson Coors Beverage Co. Cl B TAP 3/31/2020 0.33 N/A N/A
Molson Coors Beverage Co. Cl A TAP.A 3/31/2020 0.33 N/A N/A
Dana Inc. DAN 3/31/2020 0.32 N/A N/A
Visteon Corp. VC 3/31/2020 -0.43 N/A N/A
Southern Co. SO 3/31/2020 0.71 N/A N/A
EMCOR Group Inc. EME 3/31/2020 1.32 N/A N/A
Textron Inc. TXT 3/31/2020 0.53 N/A N/A
S&T Bancorp Inc. STBA 3/31/2020 0.52 N/A N/A
Parker Hannifin Corp. PH 3/31/2020 2.24 N/A N/A
Hubbell Inc. HUBB 3/31/2020 1.52 N/A N/A
Intercontinental Exchange Inc. ICE 3/31/2020 1.24 N/A N/A
Independent Bank Corp. (Michigan) IBCP 3/31/2020 0.39 N/A N/A
Provident Financial Services Inc. PFS 3/31/2020 0.35 N/A N/A
Arrow Electronics Inc. ARW 3/31/2020 1.10 N/A N/A
Kellogg Co. K 3/31/2020 0.94 N/A N/A
TriMas Corp. TRS 3/31/2020 0.31 N/A N/A
Franklin Resources Inc. BEN 3/31/2020 0.44 N/A N/A
Heritage Financial Corp. HFWA 3/31/2020 0.32 N/A N/A
Cullen/Frost Bankers Inc. CFR 3/31/2020 1.05 N/A N/A
Banco Bradesco S/A Pref ADR BBD 3/31/2020 0.14 N/A N/A
California Water Service Group CWT 3/31/2020 0.04 N/A N/A
Moody's Corp. MCO 3/31/2020 2.20 N/A N/A
GEO Group Inc. GEO 3/31/2020 0.37 N/A N/A
Generac Holdings Inc. GNRC 3/31/2020 0.81 N/A N/A
Tempur Sealy International Inc. TPX 3/31/2020 0.77 N/A N/A
Patrick Industries Inc. PATK 3/31/2020 0.74 N/A N/A
SITE Centers Corp. SITC 3/31/2020 0.06 N/A N/A
Kraft Heinz Co. KHC 3/31/2020 0.54 N/A N/A
Altra Industrial Motion Corp. AIMC 3/31/2020 0.57 N/A N/A
Precision Drilling Corp. PDS 3/31/2020 -0.02 N/A N/A
Yamana Gold Inc. AUY 3/31/2020 0.03 N/A N/A
Six Flags Entertainment Corp. SIX 3/31/2020 -1.05 N/A N/A
Teleflex Inc. TFX 3/31/2020 2.35 N/A N/A
Consolidated Communications Holdings Inc. CNSL 3/31/2020 0.11 N/A N/A
IDACORP Inc. IDA 3/31/2020 0.84 N/A N/A
Valaris PLC VAL 3/31/2020 -1.53 N/A N/A
Industrial Logistics Properties Trust ILPT 3/31/2020 0.33 N/A N/A
iStar Inc. STAR 3/31/2020 0.12 N/A N/A
FTI Consulting Inc. FCN 3/31/2020 1.55 N/A N/A
Cheniere Energy Inc. LNG 3/31/2020 0.48 N/A N/A
MGP Ingredients Inc. MGPI 3/31/2020 0.37 N/A N/A
Element Solutions Inc. ESI 3/31/2020 0.20 N/A N/A
Concert Pharmaceuticals Inc. CNCE 3/31/2020 -0.80 N/A N/A
Safeguard Scientifics Inc. SFE 3/31/2020 -0.44 N/A N/A
Hilton Grand Vacations Inc. HGV 3/31/2020 0.48 N/A N/A
Lawson Products Inc. LAWS 3/31/2020 0.53 N/A N/A
Fomento Economico Mexicano S.A.B. de C.V. ADR FMX 3/31/2020 12.65 N/A N/A
Overstock.com Inc. OSTK 3/31/2020 -0.62 N/A N/A
Wanda Sports Group Co. Ltd. ADR WSG 12/31/2019 -0.09 N/A N/A
Secoo Holding Ltd. ADR SECO 12/31/2019 2.22 N/A N/A
Novocure Ltd. NVCR 3/31/2020 0.04 N/A N/A
Applied Industrial Technologies Inc. AIT 3/31/2020 1.03 N/A N/A
Columbia Banking System Inc. COLB 3/31/2020 0.48 N/A N/A
ConnectOne Bancorp Inc. CNOB 3/31/2020 0.29 N/A N/A
First BanCorp (Puerto Rico) FBP 3/31/2020 0.16 N/A N/A
Pentair PLC PNR 3/31/2020 0.45 N/A N/A
Popular Inc. BPOP 3/31/2020 1.47 N/A N/A
Stanley Black & Decker Inc. SWK 3/31/2020 1.16 N/A N/A
Allegiance Bancshares Inc. ABTX 3/31/2020 0.42 N/A N/A
McDonald's Corp. MCD 3/31/2020 1.59 N/A N/A
Schneider National Inc. Cl B SNDR 3/31/2020 0.19 N/A N/A
1-800-FLOWERS.COM Inc. Cl A FLWS 3/31/2020 -0.17 N/A N/A
Unitil Corp. UTL 3/31/2020 1.51 N/A N/A
Spectrum Brands Holdings Inc. SPB 3/31/2020 0.40 N/A N/A
Bank7 Corp. BSVN 3/31/2020 0.43 N/A N/A
Valley National Bancorp VLY 3/31/2020 0.20 N/A N/A
Marsh & McLennan Cos. MMC 3/31/2020 1.57 N/A N/A
International Paper Co. IP 3/31/2020 0.44 N/A N/A
Brunswick Corp. BC 3/31/2020 0.89 N/A N/A
IDEXX Laboratories Inc. IDXX 3/31/2020 1.20 N/A N/A
Amalgamated Bank Cl A AMAL 3/31/2020 0.36 N/A N/A
Eaton Corp. PLC ETN 3/31/2020 1.07 N/A N/A
Willis Towers Watson PLC WLTW 3/31/2020 3.15 N/A N/A
CoreSite Realty Corp. COR 3/31/2020 0.46 N/A N/A
Proto Labs Inc. PRLB 3/31/2020 0.38 N/A N/A
iRadimed Corp. IRMD 3/31/2020 0.18 N/A N/A
U.S. Xpress Enterprises Inc. Cl A USX 3/31/2020 -0.14 N/A N/A
Universal Logistics Holdings Inc. ULH 3/31/2020 0.41 N/A N/A
LeMaitre Vascular Inc. LMAT 3/31/2020 0.16 N/A N/A
Zendesk Inc. ZEN 3/31/2020 0.06 N/A N/A
Corporate Office Properties Trust OFC 3/31/2020 0.19 N/A N/A
EastGroup Properties Inc. EGP 3/31/2020 0.56 N/A N/A
Forward Air Corp. FWRD 3/31/2020 0.47 N/A N/A
Hub Group Inc. Cl A HUBG 3/31/2020 0.60 N/A N/A
Exponent Inc. EXPO 3/31/2020 0.43 N/A N/A
Natus Medical Inc. NTUS 3/31/2020 0.22 N/A N/A
Brooks Automation Inc. BRKS 3/31/2020 0.25 N/A N/A
Seattle Genetics Inc. SGEN 3/31/2020 -0.75 N/A N/A
Columbia Sportswear Co. COLM 3/31/2020 0.68 N/A N/A
Pixelworks Inc. PXLW 3/31/2020 -0.09 N/A N/A
Molina Healthcare Inc. MOH 3/31/2020 2.98 N/A N/A
NCR Corp. NCR 3/31/2020 0.33 N/A N/A
Pretium Resources Inc. PVG 3/31/2020 0.11 N/A N/A
SS&C Technologies Holdings Inc. SSNC 3/31/2020 0.96 N/A N/A
STAG Industrial Inc. STAG 3/31/2020 0.10 N/A N/A
MGM Resorts International MGM 3/31/2020 -0.15 N/A N/A
Bank of Butterfield Ltd. NTB 3/31/2020 0.76 N/A N/A
Trupanion Inc. TRUP 3/31/2020 -0.04 N/A N/A
SPS Commerce Inc. SPSC 3/31/2020 0.32 N/A N/A
BlackLine Inc. BL 3/31/2020 0.05 N/A N/A
CryoLife Inc. CRY 3/31/2020 -0.03 N/A N/A
Mercer International Inc. MERC 3/31/2020 -0.20 N/A N/A
Agnico Eagle Mines Ltd. AEM 3/31/2020 0.20 N/A N/A
Columbia Property Trust Inc. CXP 3/31/2020 -0.01 N/A N/A
SPX Corp. SPXC 3/31/2020 0.53 N/A N/A
Concho Resources Inc. CXO 3/31/2020 0.69 N/A N/A
PRA Health Sciences Inc. PRAH 3/31/2020 1.02 N/A N/A
Casa Systems Inc. CASA 3/31/2020 -0.05 N/A N/A
Cabot Oil & Gas Corp. COG 3/31/2020 0.12 N/A N/A
Floor & Decor Holdings Inc. Cl A FND 3/31/2020 0.27 N/A N/A
Builders FirstSource Inc. BLDR 3/31/2020 0.30 N/A N/A
Century Aluminum Co. CENX 3/31/2020 -0.05 N/A N/A
Bandwidth Inc. Cl A BAND 3/31/2020 -0.11 N/A N/A
Workiva Inc. Cl A WK 3/31/2020 -0.14 N/A N/A
Kinsale Capital Group Inc. KNSL 3/31/2020 0.64 N/A N/A
VICI Properties Inc. VICI 3/31/2020 0.32 N/A N/A
Rogers Corp. ROG 3/31/2020 0.85 N/A N/A
Eldorado Gold Corp. EGO 3/31/2020 0.14 N/A N/A
Orchid Island Capital Inc. ORC 3/31/2020 0.22 N/A N/A
Ducommun Inc. DCO 3/31/2020 0.40 N/A N/A
Aptargroup Inc. ATR 3/31/2020 0.87 N/A N/A
Gaming & Leisure Properties Inc. GLPI 3/31/2020 0.53 N/A N/A
Aspen Aerogels Inc. ASPN 3/31/2020 -0.21 N/A N/A
Tandem Diabetes Care Inc. TNDM 3/31/2020 -0.17 N/A N/A
Huron Consulting Group Inc. HURN 3/31/2020 0.41 N/A N/A
Viking Therapeutics Inc. VKTX 3/31/2020 -0.12 N/A N/A
Compass Diversified Holdings CODI 3/31/2020 0.23 N/A N/A
Alexander & Baldwin Inc. ALEX 3/31/2020 0.07 N/A N/A
Silk Road Medical Inc. SILK 3/31/2020 -0.31 N/A N/A
MasTec Inc. MTZ 3/31/2020 0.46 N/A N/A
CareDx Inc. CDNA 3/31/2020 -0.14 N/A N/A
Ranger Energy Services Inc. Cl A RNGR 3/31/2020 -0.02 N/A N/A
World Fuel Services Corp. INT 3/31/2020 0.53 N/A N/A
NeoPhotonics Corp. NPTN 3/31/2020 0.05 N/A N/A
Fidus Investment Corp. FDUS 3/31/2020 0.35 N/A N/A
Ekso Bionics Holdings Inc. EKSO 3/31/2020 -0.61 N/A N/A
Range Resources Corp. RRC 3/31/2020 -0.01 N/A N/A
Barings BDC Inc. BBDC 3/31/2020 0.16 N/A N/A
Fortress Transportation & Infrastructure Investors LLC FTAI 3/31/2020 0.17 N/A N/A
Southwestern Energy Co. SWN 3/31/2020 0.08 N/A N/A
Data I/O Corp. DAIO 3/31/2020 -0.09 N/A N/A
El Pollo Loco Holdings Inc. LOCO 3/31/2020 0.11 N/A N/A
Energy Recovery Inc. ERII 3/31/2020 0.01 N/A N/A
Renewable Energy Group Inc. REGI 3/31/2020 0.95 N/A N/A
International Money Express Inc. IMXI 3/31/2020 0.17 N/A N/A
Aqua Metals Inc. AQMS 3/31/2020 -0.07 N/A N/A
United Airlines Holdings Inc. UAL 3/31/2020 -2.43 N/A N/A
First Midwest Bancorp FMBI 3/31/2020 0.32 N/A N/A
Atlassian Corp. PLC Cl A TEAM 3/31/2020 0.21 N/A N/A
County Bancorp Inc. ICBK 3/31/2020 0.39 N/A N/A
Byline Bancorp Inc. BY 3/31/2020 0.28 N/A N/A
First Western Financial Inc. MYFW 3/31/2020 0.24 N/A N/A
South Plains Financial Inc. SPFI 3/31/2020 0.43 N/A N/A
Fortune Brands Home & Security Inc. FBHS 3/31/2020 0.67 N/A N/A
First Interstate BancSystem Inc. Cl A FIBK 3/31/2020 0.65 N/A N/A
Open Text Corp. OTEX 3/31/2020 0.60 N/A N/A
Mitek Systems Inc. MITK 3/31/2020 0.10 N/A N/A
HBT Financial Inc. HBT 3/31/2020 0.42 N/A N/A
The Bancorp Inc. TBBK 3/31/2020 0.24 N/A N/A
Federated Hermes Inc. FHI 3/31/2020 0.71 N/A N/A
United States Steel Corp. X 3/31/2020 -0.84 N/A N/A
LPL Financial Holdings Inc. LPLA 3/31/2020 1.69 N/A N/A
Arthur J. Gallagher & Co. AJG 3/31/2020 1.74 N/A N/A
Western Digital Corp. WDC 3/31/2020 0.92 N/A N/A
Visa Inc. Cl A V 3/31/2020 1.35 N/A N/A
Minerals Technologies Inc. MTX 3/31/2020 0.95 N/A N/A
Beazer Homes USA Inc. BZH 3/31/2020 0.26 N/A N/A
Marlin Business Services Corp. MRLN 3/31/2020 0.32 N/A N/A
Financial Institutions Inc. FISI 3/31/2020 0.48 N/A N/A
Hilltop Holdings Inc. HTH 3/31/2020 0.39 N/A N/A
Delta Apparel Co. DLA 3/31/2020 0.38 N/A N/A
Helmerich & Payne Inc. HP 3/31/2020 0.04 N/A N/A
Greenhill & Co. Inc. GHL 3/31/2020 -0.18 N/A N/A
Gilead Sciences Inc. GILD 3/31/2020 1.58 N/A N/A
CURO Group Holdings Corp. CURO 3/31/2020 0.89 N/A N/A
Amazon.com Inc. AMZN 3/31/2020 6.28 N/A N/A
ViewRay Inc. VRAY 3/31/2020 -0.19 N/A N/A
Altice USA Inc. Cl A ATUS 3/31/2020 0.11 N/A N/A
BioMarin Pharmaceutical Inc. BMRN 3/31/2020 0.04 N/A N/A
Stryker Corp. SYK 3/31/2020 1.83 N/A N/A
Illumina Inc. ILMN 3/31/2020 1.25 N/A N/A
Edison International EIX 3/31/2020 0.82 N/A N/A
Whirlpool Corp. WHR 3/31/2020 2.64 N/A N/A
SolarWinds Corp. SWI 3/31/2020 0.20 N/A N/A
ASGN Inc. ASGN 3/31/2020 0.87 N/A N/A
Select Medical Holdings Corp. SEM 3/31/2020 0.31 N/A N/A
Apple Inc. AAPL 3/31/2020 2.30 N/A N/A
Eastman Chemical Co. EMN 3/31/2020 1.71 N/A N/A
Company Name Symbol Fiscal Quarter EPS Forecast EPS Actual Surprise
Briggs & Stratton Corp. BGG 3/31/2020 0.07 N/A N/A
Imperial Oil Ltd. IMO 3/31/2020 -0.05 N/A N/A
Phillips 66 Partners LP PSXP 3/31/2020 0.94 N/A N/A
Mitsui & Co. Ltd. ADR MITSY 3/31/2020 3.84 N/A N/A
Clorox Co. CLX 3/31/2020 1.67 N/A N/A
Restaurant Brands International Inc. QSR 3/31/2020 0.51 N/A N/A
Terex Corp. TEX 3/31/2020 -0.05 N/A N/A
MoneyGram International Inc. MGI 3/31/2020 -0.04 N/A N/A
Royal Bank of Scotland Group PLC ADR RBS 3/31/2020 0.03 N/A N/A
Johnson Controls International PLC JCI 3/31/2020 0.37 N/A N/A
Huntsman Corp. HUN 3/31/2020 0.19 N/A N/A
Immunogen Inc. IMGN 3/31/2020 -0.15 N/A N/A
Hill-Rom Holdings Inc. HRC 3/31/2020 1.15 N/A N/A
Exxon Mobil Corp. XOM 3/31/2020 0.11 N/A N/A
Honeywell International Inc. HON 3/31/2020 1.96 N/A N/A
Estee Lauder Cos. Cl A EL 3/31/2020 0.76 N/A N/A
ITT Inc. ITT 3/31/2020 0.77 N/A N/A
Colgate-Palmolive Co. CL 3/31/2020 0.73 N/A N/A
Phillips 66 PSX 3/31/2020 0.71 N/A N/A
Charter Communications Inc. Cl A CHTR 3/31/2020 2.60 N/A N/A
WisdomTree Investments Inc. WETF 3/31/2020 0.05 N/A N/A
Chevron Corp. CVX 3/31/2020 0.71 N/A N/A
Mobile Mini Inc. MINI 3/31/2020 0.42 N/A N/A
Apollo Global Management Inc. Cl A APO 3/31/2020 0.48 N/A N/A
Magellan Midstream Partners L.P. MMP 3/31/2020 1.03 N/A N/A
Weyerhaeuser Co. WY 3/31/2020 0.13 N/A N/A
Piper Sandler Cos. PIPR 3/31/2020 1.13 N/A N/A
Berry Global Group Inc. BERY 3/31/2020 1.07 N/A N/A
Virtus Investment Partners Inc. VRTS 3/31/2020 3.10 N/A N/A
LyondellBasell Industries N.V. Cl A LYB 3/31/2020 1.59 N/A N/A
Timken Co. TKR 3/31/2020 1.07 N/A N/A
Cboe Global Markets Inc. CBOE 3/31/2020 1.54 N/A N/A
AbbVie Inc. ABBV 3/31/2020 2.23 N/A N/A
Cameco Corp. CCJ 3/31/2020 -0.02 N/A N/A
TC Energy Corp. TRP 3/31/2020 0.76 N/A N/A
Newell Brands Inc. NWL 3/31/2020 0.06 N/A N/A
PG&E Corp. PCG 3/31/2020 1.03 N/A N/A
Office Properties Income Trust OPI 3/31/2020 -0.10 N/A N/A
Bel Fuse Inc. Cl A BELFA 3/31/2020 -0.39 N/A N/A
Bel Fuse Inc. Cl B BELFB 3/31/2020 -0.39 N/A N/A
AdvanSix Inc. ASIX 3/31/2020 0.21 N/A N/A
Olympic Steel Inc. ZEUS 3/31/2020 0.11 N/A N/A
Balchem Corp. BCPC 3/31/2020 0.67 N/A N/A
W. P. Carey Inc. WPC 3/31/2020 0.53 N/A N/A
U.S. Silica Holdings Inc. SLCA 3/31/2020 -0.43 N/A N/A
WillScot Corp. WSC 3/31/2020 0.09 N/A N/A
Silvercrest Asset Management Group Inc. Cl A SAMG 3/31/2020 0.38 N/A N/A
Company Name Symbol Fiscal Quarter EPS Forecast EPS Actual Surprise
Berkshire Hathaway Inc. Cl B BRK.B 3/31/2020 2.52 N/A N/A
Berkshire Hathaway Inc. Cl A BRK.A 3/31/2020 3777.89 N/A N/A
Company Name Symbol Fiscal Quarter EPS Forecast EPS Actual Surprise
Itau Unibanco Holding S/A ADR ITUB 3/31/2020 0.13 N/A N/A
Company Name Symbol Fiscal Quarter EPS Forecast EPS Actual Surprise
Klabin S/A ADR KLBAY 3/31/2020 -0.46 N/A N/A
Mercury General Corp. MCY 3/31/2020 0.89 N/A N/A
Varonis Systems Inc. VRNS 3/31/2020 -0.59 N/A N/A
Mohawk Industries Inc. MHK 3/31/2020 1.70 N/A N/A
Enel Chile S.A. ADR ENIC 3/31/2020 58.58 N/A N/A
Enel Americas S.A. ADR ENIA 3/31/2020 153.57 N/A N/A
OptimizeRx Corp. OPRX 3/31/2020 0.03 N/A N/A
Knowles Corp. KN 3/31/2020 0.02 N/A N/A
Ferrari N.V. RACE 3/31/2020 1.00 N/A N/A
CapitaLand Ltd. ADR CLLDY 3/31/2020 0.06 N/A N/A
Sempra Energy SRE 3/31/2020 2.11 N/A N/A
WEC Energy Group Inc. WEC 3/31/2020 1.32 N/A N/A
Pitney Bowes Inc. PBI 3/31/2020 0.11 N/A N/A
Tyson Foods Inc. Cl A TSN 3/31/2020 1.05 N/A N/A
Kelly Services Inc. Cl B KELYB 3/31/2020 0.31 N/A N/A
Kelly Services Inc. Cl A KELYA 3/31/2020 0.31 N/A N/A
Public Service Enterprise Group Inc. PEG 3/31/2020 1.02 N/A N/A
Customers Bancorp Inc. CUBI 3/31/2020 0.46 N/A N/A
GOL Linhas Aereas Inteligentes S.A. ADR GOL 3/31/2020 -0.49 N/A N/A
Ceragon Networks Ltd. CRNT 3/31/2020 -0.02 N/A N/A
Wabtec WAB 3/31/2020 0.99 N/A N/A
Westlake Chemical Partners LP WLKP 3/31/2020 0.51 N/A N/A
Westlake Chemical Corp. WLK 3/31/2020 0.57 N/A N/A
Tremont Mortgage Trust TRMT 3/31/2020 0.19 N/A N/A
LTC Properties Inc. LTC 3/31/2020 0.51 N/A N/A
CSI Compressco L.P. CCLP 3/31/2020 -0.18 N/A N/A
Tactile Systems Technology Inc. TCMD 3/31/2020 -0.03 N/A N/A
Clarivate Analytics PLC CCC 3/31/2020 0.08 N/A N/A
Itau CorpBanca ADR ITCB 3/31/2020 0.17 N/A N/A
Despegar.com Corp. DESP 3/31/2020 -0.22 N/A N/A
Marinus Pharmaceuticals Inc. MRNS 3/31/2020 -0.16 N/A N/A
GATX Corp. GATX 3/31/2020 1.29 N/A N/A
DSP Group Inc. DSPG 3/31/2020 -0.02 N/A N/A
CBL & Associates Properties Inc. CBL 3/31/2020 -0.09 N/A N/A
XPO Logistics Inc. XPO 3/31/2020 0.51 N/A N/A
Chegg Inc. CHGG 3/31/2020 0.16 N/A N/A
Insperity Inc. NSP 3/31/2020 1.61 N/A N/A
Watford Holdings Ltd. WTRE 3/31/2020 -6.39 N/A N/A
Rexford Industrial Realty Inc. REXR 3/31/2020 0.09 N/A N/A
Viper Energy Partners L.P. Un VNOM 3/31/2020 0.01 N/A N/A
ACCO Brands Corp. ACCO 3/31/2020 0.09 N/A N/A
Arch Capital Group Ltd. ACGL 3/31/2020 0.48 N/A N/A
American International Group Inc. AIG 3/31/2020 0.78 N/A N/A
CatchMark Timber Trust Inc. CTT 3/31/2020 -0.07 N/A N/A
Five9 Inc. FIVN 3/31/2020 0.15 N/A N/A
IAMGOLD Corp. IAG 3/31/2020 0.03 N/A N/A
Williams Cos. WMB 3/31/2020 0.26 N/A N/A
Parsley Energy Inc. Cl A PE 3/31/2020 0.24 N/A N/A
Avis Budget Group Inc. CAR 3/31/2020 -1.89 N/A N/A
Realty Income Corp. O 3/31/2020 0.39 N/A N/A
Mosaic Co. MOS 3/31/2020 -0.08 N/A N/A
Allison Transmission Holdings Inc. ALSN 3/31/2020 0.97 N/A N/A
Texas Roadhouse Inc. TXRH 3/31/2020 0.62 N/A N/A
Hercules Capital Inc. HTGC 3/31/2020 0.36 N/A N/A
EverQuote Inc. Cl A EVER 3/31/2020 -0.06 N/A N/A
BWX Technologies Inc. BWXT 3/31/2020 0.59 N/A N/A
American States Water Co. AWR 3/31/2020 0.43 N/A N/A
Itron Inc. ITRI 3/31/2020 0.58 N/A N/A
Douglas Dynamics Inc. PLOW 3/31/2020 -0.08 N/A N/A
Shake Shack Inc. Cl A SHAK 3/31/2020 0.01 N/A N/A
Trex Co. Inc. TREX 3/31/2020 0.62 N/A N/A
Black Stone Minerals L.P. BSM 3/31/2020 0.18 N/A N/A
Helios Technologies Inc. HLIO 3/31/2020 0.45 N/A N/A
Tenet Healthcare Corp. THC 3/31/2020 0.32 N/A N/A
Freshpet Inc. FRPT 3/31/2020 -0.05 N/A N/A
Repro Med Systems Inc. KRMD 3/31/2020 0.01 N/A N/A
Sykes Enterprises Inc. SYKE 3/31/2020 0.49 N/A N/A
HighPoint Resources Corp. HPR 3/31/2020 -0.10 N/A N/A
SJW Group SJW 3/31/2020 0.34 N/A N/A
Heritage Insurance Holdings Inc. HRTG 3/31/2020 0.25 N/A N/A
Acadia Healthcare Co. Inc. ACHC 3/31/2020 0.39 N/A N/A
Sterling Construction Co. Inc. STRL 3/31/2020 0.14 N/A N/A
Ameresco Inc. Cl A AMRC 3/31/2020 0.13 N/A N/A
Capitala Finance Corp. CPTA 3/31/2020 0.17 N/A N/A
GenMark Diagnostics Inc. GNMK 3/31/2020 -0.14 N/A N/A
Semler Scientific Inc. SMLR 3/31/2020 0.32 N/A N/A
TTEC Holdings Inc. TTEC 3/31/2020 0.50 N/A N/A
SI-BONE Inc. SIBN 3/31/2020 -0.39 N/A N/A
Fulgent Genetics Inc. FLGT 3/31/2020 0.01 N/A N/A
Skyworks Solutions Inc. SWKS 3/31/2020 1.33 N/A N/A
Luther Burbank Corp. LBC 3/31/2020 0.21 N/A N/A
AXIS Capital Holdings Ltd. AXS 3/31/2020 -0.11 N/A N/A
Cirrus Logic Inc. CRUS 3/31/2020 0.51 N/A N/A
Vornado Realty Trust VNO 3/31/2020 0.58 N/A N/A
Varian Medical Systems Inc. VAR 3/31/2020 0.93 N/A N/A
Woodward Inc. WWD 3/31/2020 1.11 N/A N/A
Leggett & Platt Inc. LEG 3/31/2020 0.34 N/A N/A
Kennametal Inc. KMT 3/31/2020 0.32 N/A N/A
Fabrinet FN 3/31/2020 0.94 N/A N/A
MTS Systems Corp. MTSC 3/31/2020 0.47 N/A N/A
Regal Beloit Corp. RBC 3/31/2020 1.10 N/A N/A
Mueller Water Products Inc. MWA 3/31/2020 0.13 N/A N/A
Jack Henry & Associates Inc. JKHY 3/31/2020 0.80 N/A N/A
Gladstone Capital Corp. GLAD 3/31/2020 0.21 N/A N/A
Omega Healthcare Investors Inc. OHI 3/31/2020 0.42 N/A N/A
Ichor Holdings Ltd. ICHR 3/31/2020 0.62 N/A N/A
TrueBlue Inc. TBI 3/31/2020 0.04 N/A N/A
Kimball Electronics Inc. KE 3/31/2020 0.24 N/A N/A
Diamondback Energy Inc. FANG 3/31/2020 1.37 N/A N/A
Rambus Inc. RMBS 3/31/2020 0.23 N/A N/A
Unum Group UNM 3/31/2020 1.38 N/A N/A
BanColombia S.A. ADR CIB 3/31/2020 0.92 N/A N/A
Company Name Symbol Fiscal Quarter EPS Forecast EPS Actual Surprise
Fiat Chrysler Automobiles N.V. FCAU 3/31/2020 0.30 N/A N/A
US Foods Holding Corp. USFD 3/31/2020 0.23 N/A N/A
Louisiana-Pacific Corp. LPX 3/31/2020 0.31 N/A N/A
Hawaiian Electric Industries Inc. HE 3/31/2020 0.45 N/A N/A
Leidos Holdings Inc. LDOS 3/31/2020 1.19 N/A N/A
Expeditors International of Washington Inc. EXPD 3/31/2020 0.64 N/A N/A
Archrock Inc. AROC 3/31/2020 0.14 N/A N/A
Invitae Corp. NVTA 3/31/2020 -0.82 N/A N/A
Thomson Reuters Corp. TRI 3/31/2020 0.49 N/A N/A
Mallinckrodt PLC MNK 3/31/2020 1.46 N/A N/A
Vericel Corp. VCEL 3/31/2020 -0.08 N/A N/A
Macquarie Infrastructure Corp. MIC 3/31/2020 0.47 N/A N/A
Easterly Government Properties Inc. DEA 3/31/2020 -0.03 N/A N/A
Matson Inc. MATX 3/31/2020 0.05 N/A N/A
Adecco Group A.G. ADR AHEXY 3/31/2020 0.32 N/A N/A
Vistra Energy Corp. VST 3/31/2020 0.24 N/A N/A
Qumu Corp. QUMU 3/31/2020 -0.14 N/A N/A
Era Group Inc. ERA 3/31/2020 -0.10 N/A N/A
Kopin Corp. KOPN 3/31/2020 -0.06 N/A N/A
L3Harris Technologies Inc. LHX 3/31/2020 2.61 N/A N/A
Trane Technologies PLC TT 3/31/2020 0.52 N/A N/A
MPLX L.P. MPLX 3/31/2020 0.56 N/A N/A
Methanex Corp. MEOH 3/31/2020 0.05 N/A N/A
AECOM ACM 3/31/2020 0.50 N/A N/A
Aramark ARMK 3/31/2020 0.25 N/A N/A
Allegheny Technologies Inc. ATI 3/31/2020 0.14 N/A N/A
Premier Inc. PINC 3/31/2020 0.71 N/A N/A
Intesa Sanpaolo S.p.A. ADR ISNPY 3/31/2020 0.34 N/A N/A
Pandora A/S ADR PANDY 3/31/2020 0.13 N/A N/A
Suncor Energy Inc. SU 3/31/2020 -0.03 N/A N/A
Vestas Wind Systems A/S VWSYF 3/31/2020 0.37 N/A N/A
Regeneron Pharmaceuticals Inc. REGN 3/31/2020 6.17 N/A N/A
BNP Paribas S.A. ADR BNPQY 3/31/2020 0.55 N/A N/A
Vestas Wind Systems A/S ADR VWDRY 3/31/2020 0.12 N/A N/A
BNP Paribas S.A. ADR 144A BNPZY 3/31/2020 1.10 N/A N/A
Glatfelter GLT 3/31/2020 0.18 N/A N/A
Tomra Systems ASA ADR TMRAY 3/31/2020 0.03 N/A N/A
Orkla ASA ADR ORKLY 3/31/2020 0.09 N/A N/A
Infineon Technologies AG ADR IFNNY 3/31/2020 0.18 N/A N/A
Repsol S.A. ADR REPYY 3/31/2020 0.25 N/A N/A
DuPont de Nemours Inc. DD 3/31/2020 0.69 N/A N/A
Haemonetics Corp. HAE 3/31/2020 0.73 N/A N/A
WestRock Co. WRK 3/31/2020 0.61 N/A N/A
Xylem Inc. XYL 3/31/2020 0.37 N/A N/A
Marathon Petroleum Corp. MPC 3/31/2020 -0.33 N/A N/A
Kirby Corp. KEX 3/31/2020 0.46 N/A N/A
Sealed Air Corp. SEE 3/31/2020 0.58 N/A N/A
Incyte Corp. INCY 3/31/2020 0.34 N/A N/A
Black Knight Inc. BKI 3/31/2020 0.45 N/A N/A
TopBuild Corp. BLD 3/31/2020 1.25 N/A N/A
LendingTree Inc. TREE 3/31/2020 0.50 N/A N/A
Dominion Energy Inc. D 3/31/2020 1.10 N/A N/A
Jones Lang LaSalle Inc. JLL 3/31/2020 0.94 N/A N/A
AGCO Corp. AGCO 3/31/2020 0.42 N/A N/A
Howmet Aerospace Inc. HWM 3/31/2020 0.41 N/A N/A
Illinois Tool Works Inc. ITW 3/31/2020 1.72 N/A N/A
BGC Partners Inc. Cl A BGCP 3/31/2020 0.17 N/A N/A
Sysco Corp. SYY 3/31/2020 0.61 N/A N/A
A.O. Smith Corp. AOS 3/31/2020 0.35 N/A N/A
Alaska Air Group Inc. ALK 3/31/2020 -0.90 N/A N/A
M.D.C. Holdings Inc. MDC 3/31/2020 0.71 N/A N/A
ArcBest Corp. ARCB 3/31/2020 -0.16 N/A N/A
Johnson Outdoors Inc. Cl A JOUT 3/31/2020 1.93 N/A N/A
Southside Bancshares Inc. SBSI 3/31/2020 0.48 N/A N/A
Adient PLC ADNT 3/31/2020 0.13 N/A N/A
Catalent Inc. CTLT 3/31/2020 0.49 N/A N/A
Asbury Automotive Group Inc. ABG 3/31/2020 1.75 N/A N/A
Atkore International Group Inc. ATKR 3/31/2020 0.86 N/A N/A
Lancaster Colony Corp. LANC 3/31/2020 1.10 N/A N/A
Lumentum Holdings Inc. LITE 3/31/2020 1.06 N/A N/A
Group 1 Automotive Inc. GPI 3/31/2020 1.55 N/A N/A
Ametek Inc. AME 3/31/2020 0.96 N/A N/A
General Finance Corp. GFN 3/31/2020 0.16 N/A N/A
Ingredion Inc. INGR 3/31/2020 1.53 N/A N/A
LCI Industries LCII 3/31/2020 1.46 N/A N/A
Diebold Nixdorf Inc. DBD 3/31/2020 -0.25 N/A N/A
Ares Capital Corp. ARCC 3/31/2020 0.43 N/A N/A
IPG Photonics Corp. IPGP 3/31/2020 0.19 N/A N/A
Cincinnati Bell Inc. CBB 3/31/2020 -0.12 N/A N/A
AerCap Holdings N.V. AER 3/31/2020 1.73 N/A N/A
MGM Growth Properties LLC MGP 3/31/2020 0.27 N/A N/A
JELD-WEN Holding Inc. JELD 3/31/2020 0.10 N/A N/A
USA Compression Partners L.P. USAC 3/31/2020 -0.02 N/A N/A
Crestwood Equity Partners LP CEQP 3/31/2020 0.21 N/A N/A
Vishay Precision Group Inc. VPG 3/31/2020 0.25 N/A N/A
Hudson Pacific Properties Inc. HPP 3/31/2020 0.09 N/A N/A
Henry Schein Inc. HSIC 3/31/2020 0.76 N/A N/A
R1 RCM Inc. RCM 3/31/2020 0.09 N/A N/A
Newmont Corp. NEM 3/31/2020 0.42 N/A N/A
U.S. Concrete Inc. USCR 3/31/2020 -0.24 N/A N/A
EnPro Industries Inc. NPO 3/31/2020 0.44 N/A N/A
LGI Homes Inc. LGIH 3/31/2020 1.22 N/A N/A
TravelCenters of America Inc. TA 3/31/2020 -1.48 N/A N/A
AMC Networks Inc. Cl A AMCX 3/31/2020 1.89 N/A N/A
Harvard Bioscience Inc. HBIO 3/31/2020 0.03 N/A N/A
Tetra Technologies Inc. TTI 3/31/2020 -0.07 N/A N/A
BMC Stock Holdings Inc. BMCH 3/31/2020 0.29 N/A N/A
Wayfair Inc. Cl A W 3/31/2020 -2.63 N/A N/A
Neuronetics Inc. STIM 3/31/2020 -0.50 N/A N/A
Newpark Resources Inc. NR 3/31/2020 -0.05 N/A N/A
Pinterest Inc. PINS 3/31/2020 -0.09 N/A N/A
Onto Innovation Inc. ONTO 3/31/2020 0.33 N/A N/A
PROS Holdings Inc. PRO 3/31/2020 -0.22 N/A N/A
Activision Blizzard Inc. ATVI 3/31/2020 0.38 N/A N/A
Compass Minerals International Inc. CMP 3/31/2020 0.73 N/A N/A
MercadoLibre Inc. MELI 3/31/2020 -0.51 N/A N/A
Voya Financial Inc. VOYA 3/31/2020 0.88 N/A N/A
DaVita Inc. DVA 3/31/2020 1.47 N/A N/A
Blackbaud Inc. BLKB 3/31/2020 0.47 N/A N/A
Computer Programs & Systems Inc. CPSI 3/31/2020 0.57 N/A N/A
Western Union Co. WU 3/31/2020 0.42 N/A N/A
CNO Financial Group Inc. CNO 3/31/2020 0.40 N/A N/A
Assurant Inc. AIZ 3/31/2020 2.42 N/A N/A
Healthpeak Properties Inc. PEAK 3/31/2020 0.10 N/A N/A
Quotient Technology Inc. QUOT 3/31/2020 -0.19 N/A N/A
Acadia Realty Trust AKR 3/31/2020 0.01 N/A N/A
Andersons Inc. ANDE 3/31/2020 -0.19 N/A N/A
Kinross Gold Corp. KGC 3/31/2020 0.08 N/A N/A
Chemours Co. CC 3/31/2020 0.47 N/A N/A
Healthcare Trust of America Inc. HTA 3/31/2020 0.06 N/A N/A
Republic Services Inc. RSG 3/31/2020 0.76 N/A N/A
Arista Networks Inc. ANET 3/31/2020 1.82 N/A N/A
LivePerson Inc. LPSN 3/31/2020 -0.21 N/A N/A
Otter Tail Corp. OTTR 3/31/2020 0.67 N/A N/A
Innospec Inc. IOSP 3/31/2020 1.25 N/A N/A
Verisk Analytics Inc. VRSK 3/31/2020 1.13 N/A N/A
Retail Properties of America Inc. RPAI 3/31/2020 0.05 N/A N/A
LendingClub Corp. LC 3/31/2020 -0.04 N/A N/A
Palomar Holdings Inc. PLMR 3/31/2020 0.43 N/A N/A
Everbridge Inc. EVBG 3/31/2020 -0.37 N/A N/A
Hackett Group Inc. HCKT 3/31/2020 0.23 N/A N/A
Devon Energy Corp. DVN 3/31/2020 -0.19 N/A N/A
Brookdale Senior Living Inc. BKD 3/31/2020 -0.23 N/A N/A
Masonite International Corp. DOOR 3/31/2020 0.63 N/A N/A
Alleghany Corp. Y 3/31/2020 10.16 N/A N/A
Cheesecake Factory Inc. CAKE 3/31/2020 0.02 N/A N/A
TPG Specialty Lending Inc. TSLX 3/31/2020 0.49 N/A N/A
Owl Rock Capital Corp. ORCC 3/31/2020 0.38 N/A N/A
STORE Capital Corp. STOR 3/31/2020 0.25 N/A N/A
SBA Communications Corp. SBAC 3/31/2020 0.41 N/A N/A
Sprouts Farmers Market Inc. SFM 3/31/2020 0.51 N/A N/A
Agile Therapeutics Inc. AGRX 3/31/2020 -0.09 N/A N/A
Clovis Oncology Inc. CLVS 3/31/2020 -1.28 N/A N/A
T2 Biosystems Inc. TTOO 3/31/2020 -0.25 N/A N/A
Spirit Realty Capital Inc. SRC 3/31/2020 0.28 N/A N/A
Inogen Inc. INGN 3/31/2020 -0.10 N/A N/A
Nevro Corp. NVRO 3/31/2020 -0.92 N/A N/A
Delek Logistics Partners L.P. DKL 3/31/2020 0.66 N/A N/A
Coca-Cola Consolidated Inc. COKE 3/31/2020 0.58 N/A N/A
Community Healthcare Trust Inc. CHCT 3/31/2020 0.19 N/A N/A
L.B. Foster Co. FSTR 3/31/2020 0.36 N/A N/A
B&G Foods Inc. BGS 3/31/2020 0.43 N/A N/A
Delek US Holdings Inc. DK 3/31/2020 -0.97 N/A N/A
Rayonier Advanced Materials Inc. RYAM 3/31/2020 -0.44 N/A N/A
Jazz Pharmaceuticals PLC JAZZ 3/31/2020 1.34 N/A N/A
Smart Sand Inc. SND 3/31/2020 0.01 N/A N/A
Mayville Engineering Co. Inc. MEC 3/31/2020 0.00 N/A N/A
Vertiv Holdings LLC VRT 3/31/2020 -0.04 N/A N/A
Medifast Inc. MED 3/31/2020 1.39 N/A N/A
AssetMark Financial Holdings Inc. AMK 3/31/2020 0.27 N/A N/A
FedNat Holding Co. FNHC 3/31/2020 0.33 N/A N/A
ICF International Inc. ICFI 3/31/2020 0.81 N/A N/A
Occidental Petroleum Corp. OXY 3/31/2020 -0.57 N/A N/A
Beyond Meat Inc. BYND 3/31/2020 -0.06 N/A N/A
Western Midstream Partners L.P. WES 3/31/2020 0.51 N/A N/A
B2Gold Corp. BTG 3/31/2020 0.10 N/A N/A
OneSpan Inc. OSPN 3/31/2020 -0.10 N/A N/A
LATAM Airlines Group S.A. ADR LTM 3/31/2020 -0.12 N/A N/A
Vapotherm Inc. VAPO 3/31/2020 -0.60 N/A N/A
Axonics Modulation Technologies Inc. AXNX 3/31/2020 -0.61 N/A N/A
OrthoPediatrics Corp. KIDS 3/31/2020 -0.25 N/A N/A
Ballard Power Systems Inc. BLDP 3/31/2020 -0.04 N/A N/A
Spark Energy Inc. SPKE 3/31/2020 0.02 N/A N/A
Aptose Biosciences Inc. APTO 3/31/2020 -0.10 N/A N/A
NexTier Oilfield Solutions Inc. NEX 3/31/2020 -0.16 N/A N/A
Aquestive Therapeutics Inc. AQST 3/31/2020 -0.48 N/A N/A
CalAmp Corp. CAMP 2/29/2020 0.03 N/A N/A
PerkinElmer Inc. PKI 3/31/2020 0.57 N/A N/A
Lifevantage Corp. LFVN 3/31/2020 0.16 N/A N/A
Equity Residential EQR 3/31/2020 0.33 N/A N/A
Electronic Arts Inc. EA 3/31/2020 0.97 N/A N/A
Selective Insurance Group Inc. SIGI 3/31/2020 1.02 N/A N/A
Gates Industrial Corp. PLC GTES 3/31/2020 0.16 N/A N/A
Model N Inc. MODN 3/31/2020 0.02 N/A N/A
Plains All American Pipeline L.P. PAA 3/31/2020 0.45 N/A N/A
Match Group Inc. MTCH 3/31/2020 0.37 N/A N/A
CDK Global Inc. CDK 3/31/2020 0.87 N/A N/A
Powell Industries Inc. POWL 3/31/2020 0.38 N/A N/A
Walt Disney Co. DIS 3/31/2020 0.94 N/A N/A
Genworth Financial Inc. Cl A GNW 3/31/2020 0.25 N/A N/A
Cardiovascular Systems Inc. CSII 3/31/2020 -0.07 N/A N/A
Axcelis Technologies Inc. ACLS 3/31/2020 0.28 N/A N/A
Alpha & Omega Semiconductor Inc. AOSL 3/31/2020 0.04 N/A N/A
Mattel Inc. MAT 3/31/2020 -0.41 N/A N/A
Enphase Energy Inc. ENPH 3/31/2020 0.32 N/A N/A
Nautilus Inc. NLS 3/31/2020 -0.13 N/A N/A
Akcea Therapeutics Inc. AKCA 3/31/2020 -0.41 N/A N/A
Virgin Galactic Holdings Inc. SPCE 3/31/2020 -0.18 N/A N/A
Exelixis Inc. EXEL 3/31/2020 0.13 N/A N/A
Clearwater Paper Corp. CLW 3/31/2020 0.09 N/A N/A
Boingo Wireless Inc. WIFI 3/31/2020 -0.07 N/A N/A
KLA Corp. KLAC 3/31/2020 2.29 N/A N/A
Adtalem Global Education Inc. ATGE 3/31/2020 0.67 N/A N/A
Brink's Co. BCO 3/31/2020 0.90 N/A N/A
Reinsurance Group of America Inc. RGA 3/31/2020 2.44 N/A N/A
Allstate Corp. ALL 3/31/2020 3.34 N/A N/A
Prudential Financial Inc. PRU 3/31/2020 2.78 N/A N/A
Crawford & Co. Cl B CRD.B 3/31/2020 0.11 N/A N/A
Crawford & Co. Cl A CRD.A 3/31/2020 0.11 N/A N/A
FMC Corp. FMC 3/31/2020 1.77 N/A N/A
Ashland Global Holdings Inc. ASH 3/31/2020 0.83 N/A N/A
TIM Participacoes S/A ADR TSU 3/31/2020 0.15 N/A N/A
Hyster-Yale Materials Handling Inc. HY 3/31/2020 0.20 N/A N/A
Sun Life Financial Inc. SLF 3/31/2020 0.83 N/A N/A
Company Name Symbol Fiscal Quarter EPS Forecast EPS Actual Surprise
Enanta Pharmaceuticals Inc. ENTA 3/31/2020 -0.73 N/A N/A
Coloplast A/S ADR CLPBY 3/31/2020 0.07 N/A N/A
CNH Industrial N.V. CNHI 3/31/2020 0.06 N/A N/A
Siemens Gamesa Renewable Energy S.A. ADR GCTAY 3/31/2020 0.03 N/A N/A
Radware Ltd. RDWR 3/31/2020 0.14 N/A N/A
CVS Health Corp. CVS 3/31/2020 1.62 N/A N/A
CenturyLink Inc. CTL 3/31/2020 0.34 N/A N/A
Fortis Inc. FTS 3/31/2020 0.52 N/A N/A
Zoetis Inc. ZTS 3/31/2020 0.86 N/A N/A
Intercorp Financial Services Inc. IFS 3/31/2020 0.92 N/A N/A
Credit Agricole S.A. ADR CRARY 3/31/2020 0.14 N/A N/A
TiVo Corp. TIVO 3/31/2020 0.25 N/A N/A
Quad/Graphics Inc. QUAD 3/31/2020 -0.15 N/A N/A
Genuine Parts Co. GPC 3/31/2020 1.19 N/A N/A
Companhia Brasileira de Distribuicao Grupo Pao de Acucar ADR CBD 3/31/2020 0.23 N/A N/A
Fresenius Medical Care AG & Co. KGaA ADR FMS 3/31/2020 0.53 N/A N/A
Fresenius SE & Co. KGaA ADR FSNUY 3/31/2020 0.20 N/A N/A
Sabra Healthcare REIT Inc. SBRA 3/31/2020 0.20 N/A N/A
Strongbridge Biopharma PLC SBBP 3/31/2020 -0.25 N/A N/A
Barrett Business Services Inc. BBSI 3/31/2020 -0.26 N/A N/A
National Energy Services Reunited Corp. NESR 3/31/2020 0.15 N/A N/A
Horizon Therapeutics PLC HZNP 3/31/2020 0.22 N/A N/A
frontdoor inc. FTDR 3/31/2020 0.17 N/A N/A
Cars.com Inc. CARS 3/31/2020 -0.09 N/A N/A
Resideo Technologies Inc. REZI 3/31/2020 0.15 N/A N/A
Veritiv Corp. VRTV 3/31/2020 0.20 N/A N/A
Arkema ADR ARKAY 3/31/2020 1.38 N/A N/A
Veolia Environnement S.A. ADR VEOEY 3/31/2020 0.38 N/A N/A
Maxar Technologies Inc. MAXR 3/31/2020 -0.19 N/A N/A
Companhia Siderurgica Nacional ADR SID 3/31/2020 -0.41 N/A N/A
BioCryst Pharmaceuticals Inc. BCRX 3/31/2020 -0.24 N/A N/A
Workhorse Group Inc. WKHS 3/31/2020 -0.12 N/A N/A
Bayerische Motoren Werke AG ADR BMWYY 3/31/2020 0.45 N/A N/A
Saratoga Investment Corp. SAR 2/29/2020 0.38 N/A N/A
Extreme Networks Inc. EXTR 3/31/2020 -0.14 N/A N/A
Evoqua Water Technologies Corp. AQUA 3/31/2020 0.09 N/A N/A
Novo Nordisk A/S ADR NVO 3/31/2020 0.68 N/A N/A
Aperam S.A. ADR APEMY 3/31/2020 0.58 N/A N/A
Performance Food Group Co. PFGC 3/31/2020 0.25 N/A N/A
Penske Automotive Group Inc. PAG 3/31/2020 0.75 N/A N/A
FormFactor Inc. FORM 3/31/2020 0.23 N/A N/A
Sampo Oyj Series A ADR SAXPY 3/31/2020 0.25 N/A N/A
New York Times Co. Cl A NYT 3/31/2020 0.09 N/A N/A
United Overseas Bank Ltd. ADR UOVEY 3/31/2020 0.68 N/A N/A
ChipMOS Technologies Inc. ADR IMOS 3/31/2020 0.51 N/A N/A
Societe Generale (France) ADR SCGLY 3/31/2020 0.11 N/A N/A
Schibsted ASA SBSNF 3/31/2020 0.10 N/A N/A
Hannover Rueck SE ADR HVRRY 3/31/2020 1.31 N/A N/A
Smith & Nephew PLC ADR SNN 3/31/2020 0.00 N/A N/A
GCP Applied Technologies Inc. GCP 3/31/2020 0.06 N/A N/A
Norbord Inc. OSB 3/31/2020 0.21 N/A N/A
Alexion Pharmaceuticals Inc. ALXN 3/31/2020 2.70 N/A N/A
BorgWarner Inc. BWA 3/31/2020 0.51 N/A N/A
Crescent Point Energy Corp. CPG 3/31/2020 -0.01 N/A N/A
American Electric Power Co. Inc. AEP 3/31/2020 1.12 N/A N/A
Chimera Investment Corp. CIM 3/31/2020 0.43 N/A N/A
Barrick Gold Corp. GOLD 3/31/2020 0.16 N/A N/A
Discovery Inc. Series B DISCB 3/31/2020 0.85 N/A N/A
Discovery Inc. Series C DISCK 3/31/2020 0.85 N/A N/A
Discovery Inc. Series A DISCA 3/31/2020 0.85 N/A N/A
Astec Industries Inc. ASTE 3/31/2020 0.40 N/A N/A
Scotts Miracle-Gro Co. SMG 3/31/2020 4.19 N/A N/A
CDW Corp. CDW 3/31/2020 1.34 N/A N/A
Brookfield Renewable Partners L.P. BEP 3/31/2020 0.09 N/A N/A
Sinclair Broadcast Group Inc. Cl A SBGI 3/31/2020 0.02 N/A N/A
Flir Systems Inc. FLIR 3/31/2020 0.42 N/A N/A
Gibraltar Industries Inc. ROCK 3/31/2020 0.38 N/A N/A
Spirit AeroSystems Holdings Inc. Cl A SPR 3/31/2020 -1.15 N/A N/A
General Motors Co. GM 3/31/2020 0.50 N/A N/A
Dynex Capital Inc. DX 3/31/2020 0.54 N/A N/A
Brookfield Business Partners L.P. BBU 3/31/2020 0.59 N/A N/A
Telefonica Brasil S.A. ADR VIV 3/31/2020 0.18 N/A N/A
Gerdau S/A ADR GGB 3/31/2020 -0.05 N/A N/A
Bunge Ltd. BG 3/31/2020 0.69 N/A N/A
Caesarstone Ltd. CSTE 3/31/2020 0.11 N/A N/A
Shopify Inc. Cl A SHOP 3/31/2020 -0.19 N/A N/A
Perion Network Ltd. PERI 3/31/2020 0.06 N/A N/A
Allete Inc. ALE 3/31/2020 1.15 N/A N/A
Waste Management Inc. WM 3/31/2020 0.93 N/A N/A
Advanced Energy Industries Inc. AEIS 3/31/2020 0.65 N/A N/A
InMode Ltd. INMD 3/31/2020 0.35 N/A N/A
United Fire Group Inc. UFCS 3/31/2020 0.27 N/A N/A
Genesis Energy L.P. GEL 3/31/2020 0.06 N/A N/A
Holly Energy Partners L.P. HEP 3/31/2020 0.44 N/A N/A
Cedar Fair L.P. Dep. Rec. FUN 3/31/2020 -1.71 N/A N/A
Enable Midstream Partners LP ENBL 3/31/2020 0.24 N/A N/A
Wingstop Inc. WING 3/31/2020 0.24 N/A N/A
NOW Inc. DNOW 3/31/2020 -0.06 N/A N/A
Amerigo Resources Ltd. ARREF 3/31/2020 0.03 N/A N/A
State Auto Financial Corp. STFC 3/31/2020 0.40 N/A N/A
Repligen Corp. RGEN 3/31/2020 0.22 N/A N/A
Tennant Co. TNC 3/31/2020 0.58 N/A N/A
CBIZ Inc. CBZ 3/31/2020 0.74 N/A N/A
Compugen Ltd. CGEN 3/31/2020 -0.10 N/A N/A
TC PipeLines L.P. TCP 3/31/2020 1.27 N/A N/A
Global Net Lease Inc. GNL 3/31/2020 0.03 N/A N/A
Nexstar Media Group Inc. Cl A NXST 3/31/2020 2.95 N/A N/A
Wendy's Co. WEN 3/31/2020 0.10 N/A N/A
Office Depot Inc. ODP 3/31/2020 0.07 N/A N/A
Getty Realty Corp. GTY 3/31/2020 0.29 N/A N/A
NiSource Inc. NI 3/31/2020 0.81 N/A N/A
SunOpta Inc. STKL 3/31/2020 -0.06 N/A N/A
Myers Industries Inc. MYE 3/31/2020 0.20 N/A N/A
Owens & Minor Inc. OMI 3/31/2020 0.03 N/A N/A
Ceco Environmental Corp. CECE 3/31/2020 0.11 N/A N/A
Parsons Corp. PSN 3/31/2020 0.41 N/A N/A
Meet Group Inc. MEET 3/31/2020 0.03 N/A N/A
KKR & Co. Inc. Cl A KKR 3/31/2020 0.41 N/A N/A
GrafTech International Ltd. EAF 3/31/2020 0.48 N/A N/A
Alnylam Pharmaceuticals Inc. ALNY 3/31/2020 -1.89 N/A N/A
Obsidian Energy Ltd. OBELF 3/31/2020 -0.40 N/A N/A
Genmab A/S ADR GMAB 3/31/2020 0.02 N/A N/A
Erytech Pharma ADR ERYP 3/31/2020 -0.90 N/A N/A
Trinseo S.A. TSE 3/31/2020 0.09 N/A N/A
Ligand Pharmaceuticals Inc. LGND 3/31/2020 0.66 N/A N/A
Invacare Corp. IVC 3/31/2020 -0.22 N/A N/A
Federal Realty Investment Trust FRT 3/31/2020 0.76 N/A N/A
Everest Re Group Ltd. RE 3/31/2020 3.92 N/A N/A
Watts Water Technologies Inc. Cl A WTS 3/31/2020 0.87 N/A N/A
RingCentral Inc. Cl A RNG 3/31/2020 0.18 N/A N/A
Elevate Credit Inc. ELVT 3/31/2020 0.12 N/A N/A
UDR Inc. UDR 3/31/2020 0.03 N/A N/A
DCP Midstream L.P. DCP 3/31/2020 0.39 N/A N/A
Exact Sciences Corp. EXAS 3/31/2020 -0.58 N/A N/A
NMI Holdings Inc. Cl A NMIH 3/31/2020 0.72 N/A N/A
Manulife Financial Corp. MFC 3/31/2020 0.44 N/A N/A
Nu Skin Enterprises Inc. Cl A NUS 3/31/2020 0.25 N/A N/A
Independence Realty Trust Inc. IRT 3/31/2020 0.04 N/A N/A
Welltower Inc. WELL 3/31/2020 0.39 N/A N/A
Waste Connections Inc. WCN 3/31/2020 0.63 N/A N/A
Marathon Oil Corp. MRO 3/31/2020 -0.14 N/A N/A
HubSpot Inc. HUBS 3/31/2020 0.23 N/A N/A
Quidel Corp. QDEL 3/31/2020 0.74 N/A N/A
Healthcare Realty Trust Inc. HR 3/31/2020 0.06 N/A N/A
TechTarget Inc. TTGT 3/31/2020 0.17 N/A N/A
Four Corners Property Trust Inc. FCPT 3/31/2020 0.28 N/A N/A
Laredo Petroleum Inc. LPI 3/31/2020 0.11 N/A N/A
American Equity Investment Life Holding Co. AEL 3/31/2020 1.15 N/A N/A
Chefs' Warehouse Inc. CHEF 3/31/2020 -0.15 N/A N/A
CF Industries Holdings Inc. CF 3/31/2020 0.25 N/A N/A
CoreCivic Inc. CXW 3/31/2020 0.39 N/A N/A
Copa Holdings S.A. Cl A CPA 3/31/2020 1.76 N/A N/A
Bruker Corp. BRKR 3/31/2020 0.23 N/A N/A
Ironwood Pharmaceuticals Inc. Cl A IRWD 3/31/2020 0.05 N/A N/A
Bright Horizons Family Solutions Inc. BFAM 3/31/2020 0.80 N/A N/A
Alteryx Inc. Cl A AYX 3/31/2020 -0.09 N/A N/A
Talend S.A. ADR TLND 3/31/2020 -0.29 N/A N/A
Bio-Rad Laboratories Inc. Cl B BIO.B 3/31/2020 1.82 N/A N/A
GoDaddy Inc. Cl A GDDY 3/31/2020 0.17 N/A N/A
Bio-Rad Laboratories Inc. Cl A BIO 3/31/2020 1.75 N/A N/A
Rattler Midstream L.P. RTLR 3/31/2020 0.31 N/A N/A
Nutrien Ltd. NTR 3/31/2020 -0.04 N/A N/A
OneConnect Financial Technology Co. Ltd. ADR OCFT 3/31/2020 -0.15 N/A N/A
Xperi Corp. XPER 3/31/2020 0.69 N/A N/A
Invitation Homes Inc. INVH 3/31/2020 0.06 N/A N/A
Extra Space Storage Inc. EXR 3/31/2020 0.76 N/A N/A
Amedisys Inc. AMED 3/31/2020 0.97 N/A N/A
Golden Star Resources Ltd. GSS 3/31/2020 0.04 N/A N/A
Hyatt Hotels Corp. H 3/31/2020 -0.14 N/A N/A
Ribbon Communications Inc. RBBN 3/31/2020 0.02 N/A N/A
North American Construction Group Ltd. NOA 3/31/2020 0.54 N/A N/A
Albemarle Corp. ALB 3/31/2020 0.82 N/A N/A
SM Energy Co. SM 3/31/2020 -0.17 N/A N/A
nLIGHT Inc. LASR 3/31/2020 -0.16 N/A N/A
CVR Partners LP UAN 3/31/2020 -0.17 N/A N/A
Pioneer Natural Resources Co. PXD 3/31/2020 1.19 N/A N/A
Cimarex Energy Co. XEC 3/31/2020 0.33 N/A N/A
Tivity Health Inc. TVTY 3/31/2020 -0.18 N/A N/A
Noble Corp. PLC NE 3/31/2020 -0.39 N/A N/A
Q2 Holdings Inc. QTWO 3/31/2020 -0.12 N/A N/A
CVR Energy Inc. CVI 3/31/2020 -0.49 N/A N/A
Pan American Silver Corp. PAAS 3/31/2020 0.15 N/A N/A
MagnaChip Semiconductor Corp. MX 3/31/2020 0.09 N/A N/A
SolarEdge Technologies Inc. SEDG 3/31/2020 1.09 N/A N/A
NuVasive Inc. NUVA 3/31/2020 0.46 N/A N/A
Fastly Inc. Cl A FSLY 3/31/2020 -0.12 N/A N/A
United Insurance Holdings Corp. UIHC 3/31/2020 0.25 N/A N/A
RE/MAX Holdings Inc. Cl A RMAX 3/31/2020 0.40 N/A N/A
Zix Corp. ZIXI 3/31/2020 0.13 N/A N/A
LSB Industries Inc. LXU 3/31/2020 -0.71 N/A N/A
Rent-A-Center Inc. RCII 3/31/2020 0.62 N/A N/A
Axogen Inc. AXGN 3/31/2020 -0.15 N/A N/A
EPR Properties EPR 3/31/2020 0.62 N/A N/A
Genco Shipping & Trading Ltd. GNK 3/31/2020 -0.24 N/A N/A
Regional Management Corp. RM 3/31/2020 0.74 N/A N/A
Kinaxis Inc. KXSCF 3/31/2020 0.28 N/A N/A
Tronox Holdings PLC TROX 3/31/2020 0.17 N/A N/A
CrossAmerica Partners L.P. CAPL 3/31/2020 0.14 N/A N/A
Par Pacific Holdings Inc. PARR 3/31/2020 -0.30 N/A N/A
Evertec Inc. EVTC 3/31/2020 0.46 N/A N/A
Staar Surgical Co. STAA 3/31/2020 0.02 N/A N/A
Comstock Resources Inc. CRK 3/31/2020 0.08 N/A N/A
Kennedy-Wilson Holdings Inc. KW 3/31/2020 -0.08 N/A N/A
Upwork Inc. UPWK 3/31/2020 -0.01 N/A N/A
Extended Stay America Inc. STAY 3/31/2020 0.06 N/A N/A
Ansys Inc. ANSS 3/31/2020 0.80 N/A N/A
Bain Capital Specialty Finance Inc. BCSF 3/31/2020 0.41 N/A N/A
Stantec Inc. STN 3/31/2020 0.32 N/A N/A
Chesapeake Utilities Corp. CPK 3/31/2020 1.76 N/A N/A
Etsy Inc. ETSY 3/31/2020 0.18 N/A N/A
Carvana Co. Cl A CVNA 3/31/2020 -0.59 N/A N/A
Rubicon Project Inc. RUBI 3/31/2020 -0.10 N/A N/A
Curtiss-Wright Corp. CW 3/31/2020 1.29 N/A N/A
Sprout Social Inc. Cl A SPT 3/31/2020 -0.21 N/A N/A
Apache Corp. APA 3/31/2020 -0.29 N/A N/A
Altus Midstream Co. ALTM 3/31/2020 0.02 N/A N/A
3D Systems Corp. DDD 3/31/2020 -0.05 N/A N/A
Essential Utilities Inc. WTRG 3/31/2020 0.57 N/A N/A
Berry Corp. (bry) BRY 3/31/2020 0.26 N/A N/A
FGL Holdings FG 3/31/2020 0.35 N/A N/A
South Jersey Industries Inc. SJI 3/31/2020 1.06 N/A N/A
FS KKR Capital Corp. FSK 3/31/2020 0.20 N/A N/A
SunRun Inc. RUN 3/31/2020 0.08 N/A N/A
PPD Inc. PPD 3/31/2020 0.21 N/A N/A
Evergy Inc. EVRG 3/31/2020 0.46 N/A N/A
Intrepid Potash Inc. IPI 3/31/2020 0.02 N/A N/A
Livongo Health Inc. LVGO 3/31/2020 -0.04 N/A N/A
FlexShopper Inc. FPAY 3/31/2020 0.01 N/A N/A
Fox Factory Holding Corp. FOXF 3/31/2020 0.57 N/A N/A
Cytokinetics Inc. CYTK 3/31/2020 -0.50 N/A N/A
Western Asset Mortgage Capital Corp. WMC 3/31/2020 0.23 N/A N/A
Ping Identity Holding Corp. PING 3/31/2020 0.03 N/A N/A
Ryerson Holding Corp. RYI 3/31/2020 0.35 N/A N/A
BlackRock Capital Investment Corp. BKCC 3/31/2020 0.14 N/A N/A
Gulf Island Fabrication Inc. GIFI 3/31/2020 -0.33 N/A N/A
USD Partners LP USDP 3/31/2020 0.25 N/A N/A
Smith Micro Software Inc. SMSI 3/31/2020 0.08 N/A N/A
Franco-Nevada Corp. FNV 3/31/2020 0.54 N/A N/A
U.S. Auto Parts Network Inc. PRTS 3/31/2020 0.00 N/A N/A
Intellicheck Inc. IDN 3/31/2020 -0.02 N/A N/A
Rosetta Stone Inc. RST 3/31/2020 -0.28 N/A N/A
Inseego Corp. INSG 3/31/2020 -0.07 N/A N/A
Wheaton Precious Metals Corp. WPM 3/31/2020 0.21 N/A N/A
Talos Energy Inc. TALO 3/31/2020 0.03 N/A N/A
ACM Research Inc. Cl A ACMR 3/31/2020 0.14 N/A N/A
MorphoSys AG ADR MOR 3/31/2020 0.74 N/A N/A
German American Bancorp Inc. GABC 3/31/2020 0.43 N/A N/A
Aspen Technology Inc. AZPN 3/31/2020 0.90 N/A N/A
Mid-America Apartment Communities Inc. MAA 3/31/2020 0.62 N/A N/A
Ameriprise Financial Inc. AMP 3/31/2020 3.95 N/A N/A
Essex Property Trust Inc. ESS 3/31/2020 1.44 N/A N/A
Bottomline Technologies Inc. EPAY 3/31/2020 0.33 N/A N/A
Valvoline Inc. VVV 3/31/2020 0.34 N/A N/A
Jacobs Engineering Group Inc. J 3/31/2020 1.30 N/A N/A
Viavi Solutions Inc. VIAV 3/31/2020 0.13 N/A N/A
Neurocrine Biosciences Inc. NBIX 3/31/2020 0.56 N/A N/A
RenaissanceRe Holdings Ltd. RNR 3/31/2020 4.12 N/A N/A
Atmos Energy Corp. ATO 3/31/2020 1.94 N/A N/A
Avalonbay Communities Inc. AVB 3/31/2020 1.19 N/A N/A
Radian Group Inc. RDN 3/31/2020 0.74 N/A N/A
Fox Corp. Cl B FOX 3/31/2020 0.71 N/A N/A
DHI Group Inc. DHX 3/31/2020 0.04 N/A N/A
Lincoln National Corp. LNC 3/31/2020 2.19 N/A N/A
IAC/InterActiveCorp. IAC 3/31/2020 0.67 N/A N/A
ANGI Homeservices Inc. Cl A ANGI 3/31/2020 -0.03 N/A N/A
GrubHub Inc. GRUB 3/31/2020 -0.04 N/A N/A
Twilio Inc. Cl A TWLO 3/31/2020 -0.11 N/A N/A
Spirit Airlines Inc. SAVE 3/31/2020 -0.47 N/A N/A
Hillenbrand Inc. HI 3/31/2020 0.44 N/A N/A
Cubic Corp. CUB 3/31/2020 0.00 N/A N/A
UGI Corp. UGI 3/31/2020 1.53 N/A N/A
Royal Gold Inc. RGLD 3/31/2020 0.66 N/A N/A
QuinStreet Inc. QNST 3/31/2020 0.19 N/A N/A
Fox Corp. Cl A FOXA 3/31/2020 0.71 N/A N/A
Two Harbors Investment Corp. TWO 3/31/2020 0.30 N/A N/A
Peloton Interactive Inc. PTON 3/31/2020 -0.18 N/A N/A
Cabot Microelectronics Corp. CCMP 3/31/2020 1.70 N/A N/A
SiTime Corp. SITM 3/31/2020 -0.18 N/A N/A
Evolution Petroleum Corp. EPM 3/31/2020 0.06 N/A N/A
Sonos Inc. SONO 3/31/2020 -0.28 N/A N/A
Adtran Inc. ADTN 3/31/2020 -0.10 N/A N/A
Equinix Inc. EQIX 3/31/2020 1.81 N/A N/A
OraSure Technologies Inc. OSUR 3/31/2020 -0.06 N/A N/A
Energous Corp. WATT 3/31/2020 -0.27 N/A N/A
T-Mobile US Inc. TMUS 3/31/2020 1.03 N/A N/A
Fortinet Inc. FTNT 3/31/2020 0.51 N/A N/A
Lyft Inc. Cl A LYFT 3/31/2020 -0.57 N/A N/A
American Water Works Co. AWK 3/31/2020 0.67 N/A N/A
Veracyte Inc. VCYT 3/31/2020 -0.19 N/A N/A
Square Inc. Cl A SQ 3/31/2020 0.13 N/A N/A
Qiagen N.V. QGEN 3/31/2020 0.27 N/A N/A
CSG Systems International Inc. CSGS 3/31/2020 0.69 N/A N/A
Zynga Inc. Cl A ZNGA 3/31/2020 0.05 N/A N/A
PayPal Holdings Inc. PYPL 3/31/2020 0.76 N/A N/A
ESCO Technologies Inc. ESE 3/31/2020 0.62 N/A N/A
MetLife Inc. MET 3/31/2020 1.44 N/A N/A
Ceridian HCM Holding Inc. CDAY 3/31/2020 0.12 N/A N/A
Monmouth Real Estate Investment Corp. Cl A MNR 3/31/2020 0.09 N/A N/A
WPX Energy Inc. WPX 3/31/2020 0.06 N/A N/A
Kite Realty Group Trust KRG 3/31/2020 0.03 N/A N/A
Company Name Symbol Fiscal Quarter EPS Forecast EPS Actual Surprise
Credicorp Ltd. BAP 3/31/2020 13.63 N/A N/A
Advanced Info Service PCL ADR AVIFY 3/31/2020 0.08 N/A N/A
Banca Monte dei Paschi di Siena S.p.A. ADR BMDPY 3/31/2020 -0.01 N/A N/A
Koninklijke Ahold Delhaize N.V. ADR ADRNY 3/31/2020 0.56 N/A N/A
ChannelAdvisor Corp. ECOM 3/31/2020 0.09 N/A N/A
Huntington Ingalls Industries Inc. HII 3/31/2020 4.53 N/A N/A
VEON Ltd. ADR VEON 3/31/2020 0.10 N/A N/A
InterContinental Hotels Group PLC ADR IHG 3/31/2020 0.35 N/A N/A
ShotSpotter Inc. SSTI 3/31/2020 0.03 N/A N/A
Elanco Animal Health Inc. ELAN 3/31/2020 0.23 N/A N/A
Bausch Health Cos. Inc. BHC 3/31/2020 0.89 N/A N/A
Lexington Realty Trust LXP 3/31/2020 0.04 N/A N/A
ViacomCBS Inc. Cl B VIAC 3/31/2020 1.00 N/A N/A
ViacomCBS Inc. Cl A VIACA 3/31/2020 1.00 N/A N/A
Focus Financial Partners Inc. FOCS 3/31/2020 0.66 N/A N/A
Telefonica S.A. ADR TEF 3/31/2020 0.36 N/A N/A
Air France-KLM ADR AFLYY 3/31/2020 -1.15 N/A N/A
Galapagos N.V. ADR GLPG 3/31/2020 -0.61 N/A N/A
Puma Biotechnology Inc. PBYI 3/31/2020 -0.81 N/A N/A
Magna International Inc. MGA 3/31/2020 0.87 N/A N/A
Airgain Inc. AIRG 3/31/2020 -0.01 N/A N/A
Advanced Disposal Services Inc. ADSW 3/31/2020 0.04 N/A N/A
Colfax Corp. CFX 3/31/2020 0.37 N/A N/A
MOL Nyrt. GDR 144A MGYXY 3/31/2020 0.08 N/A N/A
MOL Nyrt. ADR MGYOY 3/31/2020 0.08 N/A N/A
Orthofix Medical Inc. OFIX 3/31/2020 0.11 N/A N/A
Perficient Inc. PRFT 3/31/2020 0.50 N/A N/A
Liberty Media Corp. Series A Liberty Braves BATRA 3/31/2020 -0.88 N/A N/A
Endo International PLC ENDP 3/31/2020 0.52 N/A N/A
Moderna Inc. MRNA 3/31/2020 -0.37 N/A N/A
Liberty Media Corp. Series C Liberty Formula One FWONK 3/31/2020 -0.70 N/A N/A
Liberty Media Corp. Series C Liberty Braves BATRK 3/31/2020 -0.88 N/A N/A
Liberty Media Corp. Series A Liberty Formula One FWONA 3/31/2020 -0.77 N/A N/A
GCI Liberty Inc. Cum. Redeem. Pfd. Series A GLIBP 3/31/2020 -1.61 N/A N/A
GCI Liberty Inc. Cl A GLIBA 3/31/2020 -0.97 N/A N/A
Liberty Broadband Corp. Cl C LBRDK 3/31/2020 0.65 N/A N/A
Sage Therapeutics Inc. SAGE 3/31/2020 -3.08 N/A N/A
Liberty Broadband Corp. Cl A LBRDA 3/31/2020 0.42 N/A N/A
Gray Television Inc. Cl A GTN.A 3/31/2020 0.38 N/A N/A
Radius Health Inc. RDUS 3/31/2020 -0.67 N/A N/A
Gray Television Inc. GTN 3/31/2020 0.38 N/A N/A
iHeartMedia Inc. IHRT 3/31/2020 -0.24 N/A N/A
Applied Optoelectronics Inc. AAOI 3/31/2020 -0.37 N/A N/A
International Consolidated Airlines Group S.A. ADR ICAGY 3/31/2020 -0.50 N/A N/A
Muenchener Rueckversicherungs-Gesellschaft AG ADR MURGY 3/31/2020 0.50 N/A N/A
Baytex Energy Corp. BTE 3/31/2020 -0.03 N/A N/A
Global Water Resources Inc. GWRS 3/31/2020 0.00 N/A N/A
PlayAGS Inc. AGS 3/31/2020 -0.07 N/A N/A
Calyxt Inc. CLXT 3/31/2020 -0.32 N/A N/A
Continental AG ADR CTTAY 3/31/2020 0.08 N/A N/A
Continental AG CTTAF 3/31/2020 0.79 N/A N/A
Eloxx Pharmaceuticals Inc. ELOX 3/31/2020 -0.34 N/A N/A
PC-Tel Inc. PCTI 3/31/2020 0.06 N/A N/A
Natura & Co. Holding S.A. ADR NTCO 3/31/2020 0.03 N/A N/A
ProSiebenSat.1 Media SE ADR PBSFY 3/31/2020 0.05 N/A N/A
Nine Energy Service Inc. NINE 3/31/2020 -0.41 N/A N/A
Avid Technology Inc. AVID 3/31/2020 0.02 N/A N/A
INmune Bio Inc. INMB 3/31/2020 -0.25 N/A N/A
Calithera Biosciences Inc. CALA 3/31/2020 -0.37 N/A N/A
X4 Pharmaceuticals Inc. XFOR 3/31/2020 -0.80 N/A N/A
Leonardo S.p.A. ADR FINMY 3/31/2020 0.05 N/A N/A
Nintendo Co. Ltd. ADR NTDOY 3/31/2020 0.25 N/A N/A
Paylocity Holding Corp. PCTY 3/31/2020 0.70 N/A N/A
Microchip Technology Inc. MCHP 3/31/2020 1.35 N/A N/A
Marubeni Corp. ADR MARUY 3/31/2020 3.08 N/A N/A
Cognizant Technology Solutions Corp. CTSH 3/31/2020 0.93 N/A N/A
Equinor ASA ADR EQNR 3/31/2020 0.24 N/A N/A
Becton Dickinson & Co. BDX 3/31/2020 2.40 N/A N/A
Metso Corp. ADR MXCYY 3/31/2020 0.11 N/A N/A
Bristol-Myers Squibb Co. BMY 3/31/2020 1.51 N/A N/A
BCE Inc. BCE 3/31/2020 0.56 N/A N/A
Koninklijke DSM N.V. ADR RDSMY 3/31/2020 0.30 N/A N/A
Anheuser-Busch InBev S.A. ADR BUD 3/31/2020 -0.22 N/A N/A
Electrolux AB ADR ELUXY 3/31/2020 -0.02 N/A N/A
Sappi Ltd. ADR SPPJY 3/31/2020 0.01 N/A N/A
ArcelorMittal ADR MT 3/31/2020 -0.03 N/A N/A
Corteva Inc. CTVA 3/31/2020 0.40 N/A N/A
Danaher Corp. DHR 3/31/2020 1.03 N/A N/A
Linde PLC LIN 3/31/2020 1.87 N/A N/A
Banco do Brasil S/A ADR BDORY 3/31/2020 0.30 N/A N/A
Gentherm Inc. THRM 3/31/2020 0.46 N/A N/A
EPAM Systems Inc. EPAM 3/31/2020 1.39 N/A N/A
ACI Worldwide Inc. ACIW 3/31/2020 0.08 N/A N/A
AES Corp. AES 3/31/2020 0.32 N/A N/A
CenterPoint Energy Inc. CNP 3/31/2020 0.44 N/A N/A
AmerisourceBergen Corp. ABC 3/31/2020 2.28 N/A N/A
TELUS Corp. TU 3/31/2020 0.25 N/A N/A
Acushnet Holdings Corp. GOLF 3/31/2020 0.38 N/A N/A
Kontoor Brands Inc. KTB 3/31/2020 0.26 N/A N/A
CBRE Group Inc. Cl A CBRE 3/31/2020 0.72 N/A N/A
Raytheon Technologies Corp. RTX 3/31/2020 1.01 N/A N/A
Vista Outdoor Inc. VSTO 3/31/2020 0.06 N/A N/A
Penn National Gaming Inc. PENN 3/31/2020 0.41 N/A N/A
Teva Pharmaceutical Industries Ltd. ADR TEVA 3/31/2020 0.59 N/A N/A
Tradeweb Markets Inc. TW 3/31/2020 0.35 N/A N/A
Carrols Restaurant Group Inc. TAST 3/31/2020 -0.32 N/A N/A
Cogent Communications Holdings Inc. CCOI 3/31/2020 0.21 N/A N/A
OGE Energy Corp. OGE 3/31/2020 0.21 N/A N/A
ServiceMaster Global Holdings Inc. SERV 3/31/2020 0.19 N/A N/A
Virtu Financial Inc. VIRT 3/31/2020 1.39 N/A N/A
Hess Corp. HES 3/31/2020 -0.53 N/A N/A
NetScout Systems Inc. NTCT 3/31/2020 0.47 N/A N/A
BrightSphere Investment Group Inc. BSIG 3/31/2020 0.38 N/A N/A
Newmark Group Inc. NMRK 3/31/2020 0.21 N/A N/A
Consolidated Water Co. Inc. CWCO 3/31/2020 0.20 N/A N/A
Xcel Energy Inc. XEL 3/31/2020 0.61 N/A N/A
Ambev S.A. ADR ABEV 3/31/2020 0.03 N/A N/A
Edgewell Personal Care Co. EPC 3/31/2020 0.92 N/A N/A
Hilton Worldwide Holdings Inc. HLT 3/31/2020 0.58 N/A N/A
TEGNA Inc. TGNA 3/31/2020 0.38 N/A N/A
Charles River Laboratories International Inc. CRL 3/31/2020 1.49 N/A N/A
YETI Holdings Inc. YETI 3/31/2020 0.07 N/A N/A
Asanko Gold Inc. AKG 3/31/2020 0.02 N/A N/A
TreeHouse Foods Inc. THS 3/31/2020 0.32 N/A N/A
Fidelity National Information Services Inc. FIS 3/31/2020 1.27 N/A N/A
Enbridge Inc. ENB 3/31/2020 0.52 N/A N/A
Himax Technologies Inc. ADR HIMX 3/31/2020 0.01 N/A N/A
NexPoint Residential Trust Inc. NXRT 3/31/2020 0.45 N/A N/A
Choice Hotels International Inc. CHH 3/31/2020 0.73 N/A N/A
Vonage Holdings Corp. VG 3/31/2020 0.01 N/A N/A
Integra LifeSciences Holdings Corp. IART 3/31/2020 0.63 N/A N/A
Fiverr International Ltd. FVRR 3/31/2020 -0.28 N/A N/A
Lamar Advertising Co. Cl A LAMR 3/31/2020 0.38 N/A N/A
CommScope Holding Co. Inc. COMM 3/31/2020 0.08 N/A N/A
Mednax Inc. MD 3/31/2020 0.59 N/A N/A
HollyFrontier Corp. HFC 3/31/2020 0.41 N/A N/A
InterDigital Inc. IDCC 3/31/2020 0.17 N/A N/A
Aaron's Inc. AAN 3/31/2020 0.83 N/A N/A
Primo Water Corp. PRMW 3/31/2020 -0.03 N/A N/A
Shell Midstream Partners L.P. SHLX 3/31/2020 0.38 N/A N/A
Cannae Holdings Inc. CNNE 3/31/2020 0.05 N/A N/A
Cooper Tire & Rubber Co. CTB 3/31/2020 -0.12 N/A N/A
Ryman Hospitality Properties Inc. RHP 3/31/2020 0.70 N/A N/A
Heska Corp. HSKA 3/31/2020 -0.20 N/A N/A
Starwood Property Trust Inc. STWD 3/31/2020 0.51 N/A N/A
City Office REIT Inc. CIO 3/31/2020 -0.03 N/A N/A
Donnelley Financial Solutions Inc. DFIN 3/31/2020 0.03 N/A N/A
Physicians Realty Trust DOC 3/31/2020 0.07 N/A N/A
Momenta Pharmaceuticals Inc. MNTA 3/31/2020 -0.48 N/A N/A
Civeo Corp. CVEO 3/31/2020 -0.09 N/A N/A
Triple-S Management Corp. Cl B GTS 3/31/2020 0.61 N/A N/A
ExlService Holdings Inc. EXLS 3/31/2020 0.77 N/A N/A
Stericycle Inc. SRCL 3/31/2020 0.58 N/A N/A
Laureate Education Inc. Cl A LAUR 3/31/2020 -0.45 N/A N/A
Kimbell Royalty Partners L.P. KRP 3/31/2020 0.00 N/A N/A
Clearway Energy Inc. Cl A CWEN.A 3/31/2020 0.01 N/A N/A
NRG Energy Inc. NRG 3/31/2020 0.52 N/A N/A
Houghton Mifflin Harcourt Co. HMHC 3/31/2020 -0.78 N/A N/A
EQT Corp. EQT 3/31/2020 -0.01 N/A N/A
Gannett Co. Inc. GCI 3/31/2020 -0.24 N/A N/A
Athenex Inc. ATNX 3/31/2020 -0.16 N/A N/A
Clearway Energy Inc. Cl C CWEN 3/31/2020 0.01 N/A N/A
Five Star Senior Living Inc. FVE 3/31/2020 0.20 N/A N/A
Diversified Healthcare Trust DHC 3/31/2020 -0.09 N/A N/A
OneWater Marine Inc. Cl A ONEW 3/31/2020 0.30 N/A N/A
Canadian Natural Resources Ltd. CNQ 3/31/2020 0.01 N/A N/A
Option Care Health Inc. OPCH 3/31/2020 -0.08 N/A N/A
Reynolds Consumer Products Inc. REYN 3/31/2020 0.26 N/A N/A
Superior Drilling Products Inc. SDPI 3/31/2020 -0.02 N/A N/A
BG Staffing Inc. BGSF 3/31/2020 0.23 N/A N/A
Spartan Motors Inc. SPAR 3/31/2020 0.26 N/A N/A
Lazydays Holdings Inc. LAZY 3/31/2020 0.13 N/A N/A
Otis Worldwide Corp. OTIS 3/31/2020 0.45 N/A N/A
Euronav N.V. EURN 3/31/2020 0.87 N/A N/A
Murphy Oil Corp. MUR 3/31/2020 -0.41 N/A N/A
Gartner Inc. IT 3/31/2020 0.33 N/A N/A
Energizer Holdings Inc. ENR 3/31/2020 0.36 N/A N/A
Ball Corp. BLL 3/31/2020 0.60 N/A N/A
GasLog Ltd. GLOG 3/31/2020 0.08 N/A N/A
Malibu Boats Inc. Cl A MBUU 3/31/2020 1.01 N/A N/A
Oaktree Strategic Income Corp. OCSI 3/31/2020 0.17 N/A N/A
Liquidity Services Inc. LQDT 3/31/2020 -0.12 N/A N/A
Oaktree Specialty Lending Corp. OCSL 3/31/2020 0.10 N/A N/A
GasLog Partners LP GLOP 3/31/2020 0.41 N/A N/A
Daiwa Securities Group Inc. ADR DSEEY 3/31/2020 0.11 N/A N/A
EDP-Energias de Portugal S.A. ADR EDPFY 3/31/2020 0.53 N/A N/A
Neovasc Inc. NVCN 3/31/2020 -0.66 N/A N/A
Qorvo Inc. QRVO 3/31/2020 1.34 N/A N/A
Power Integrations Inc. POWI 3/31/2020 0.66 N/A N/A
Camden Property Trust CPT 3/31/2020 0.49 N/A N/A
GSI Technology Inc. GSIT 3/31/2020 -0.16 N/A N/A
Apartment Investment & Management Co. AIV 3/31/2020 0.17 N/A N/A
Matthews International Corp. Cl A MATW 3/31/2020 0.67 N/A N/A
Proofpoint Inc. PFPT 3/31/2020 0.27 N/A N/A
Digi International Inc. DGII 3/31/2020 0.07 N/A N/A
USA Truck Inc. USAK 3/31/2020 -0.36 N/A N/A
Skywest Inc. SKYW 3/31/2020 1.04 N/A N/A
Phibro Animal Health Corp. PAHC 3/31/2020 0.34 N/A N/A
Beacon Roofing Supply Inc. BECN 3/31/2020 -0.21 N/A N/A
MGIC Investment Corp. MTG 3/31/2020 0.42 N/A N/A
Fiserv Inc. FISV 3/31/2020 1.00 N/A N/A
Arrowhead Pharmaceuticals Corp. ARWR 3/31/2020 -0.11 N/A N/A
Glu Mobile Inc. GLUU 3/31/2020 0.00 N/A N/A
Horace Mann Educators Corp. HMN 3/31/2020 0.67 N/A N/A
GoPro Inc. GPRO 3/31/2020 -0.32 N/A N/A
Manning & Napier Inc. MN 3/31/2020 0.04 N/A N/A
Nuance Communications Inc. NUAN 3/31/2020 0.17 N/A N/A
Synaptics Inc. SYNA 3/31/2020 1.41 N/A N/A
Mettler-Toledo International Inc. MTD 3/31/2020 3.95 N/A N/A
Post Holdings Inc. POST 3/31/2020 0.87 N/A N/A
Natural Grocers by Vitamin Cottage Inc. NGVC 3/31/2020 0.17 N/A N/A
FBL Financial Group Inc. FFG 3/31/2020 1.14 N/A N/A
Deluxe Corp. DLX 3/31/2020 1.14 N/A N/A
TeleNav Inc. TNAV 3/31/2020 0.02 N/A N/A
BellRing Brands Inc. Cl A BRBR 3/31/2020 0.08 N/A N/A
Universal Technical Institute Inc. UTI 3/31/2020 -0.01 N/A N/A
Motorola Solutions Inc. MSI 3/31/2020 1.28 N/A N/A
Teradata Corp. TDC 3/31/2020 0.23 N/A N/A
Manitowoc Co. MTW 3/31/2020 -0.05 N/A N/A
Lightpath Technologies Inc. Cl A LPTH 3/31/2020 0.01 N/A N/A
FleetCor Technologies Inc. FLT 3/31/2020 2.85 N/A N/A
Bill.com Holdings Inc. BILL 3/31/2020 -0.10 N/A N/A
i3 Verticals Inc. Cl A IIIV 3/31/2020 0.18 N/A N/A
Fluidigm Corp. FLDM 3/31/2020 -0.20 N/A N/A
Brixmor Property Group Inc. BRX 3/31/2020 0.19 N/A N/A
Rapid7 Inc. RPD 3/31/2020 -0.12 N/A N/A
A10 Networks Inc. ATEN 3/31/2020 0.01 N/A N/A
Douglas Emmett Inc. DEI 3/31/2020 0.06 N/A N/A
Avalara Inc. AVLR 3/31/2020 -0.11 N/A N/A
Redfin Corp. RDFN 3/31/2020 -0.75 N/A N/A
Regency Centers Corp. REG 3/31/2020 0.36 N/A N/A
Qualys Inc. QLYS 3/31/2020 0.60 N/A N/A
PDF Solutions Inc. PDFS 3/31/2020 0.03 N/A N/A
Apollo Commercial Real Estate Finance Inc. ARI 3/31/2020 0.40 N/A N/A
Cloudflare Inc. Cl A NET 3/31/2020 -0.06 N/A N/A
Yelp Inc. YELP 3/31/2020 -0.06 N/A N/A
CarGurus Inc. Cl A CARG 3/31/2020 0.07 N/A N/A
Veeco Instruments Inc. VECO 3/31/2020 0.06 N/A N/A
SVMK Inc. SVMK 3/31/2020 -0.16 N/A N/A
Digital Realty Trust Inc. DLR 3/31/2020 0.27 N/A N/A
Flowserve Corp. FLS 3/31/2020 0.41 N/A N/A
Herbalife Nutrition Ltd. HLF 3/31/2020 0.63 N/A N/A
Life Storage Inc. LSI 3/31/2020 0.82 N/A N/A
Grand Canyon Education Inc. LOPE 3/31/2020 1.51 N/A N/A
Perdoceo Education Corp. PRDO 3/31/2020 0.38 N/A N/A
Host Hotels & Resorts Inc. HST 3/31/2020 0.15 N/A N/A
Ovintiv Inc. OVV 3/31/2020 0.30 N/A N/A
Integer Holdings Corp. ITGR 3/31/2020 0.94 N/A N/A
Dropbox Inc. DBX 3/31/2020 0.14 N/A N/A
Appian Corp. Cl A APPN 3/31/2020 -0.20 N/A N/A
Hannon Armstrong Sustainable Infrastructure Capital Inc. HASI 3/31/2020 0.37 N/A N/A
Americold Realty Trust COLD 3/31/2020 0.08 N/A N/A
Globus Medical Inc. GMED 3/31/2020 0.38 N/A N/A
Casella Waste Systems Inc. Cl A CWST 3/31/2020 -0.02 N/A N/A
ProAssurance Corp. PRA 3/31/2020 0.06 N/A N/A
Envestnet Inc. ENV 3/31/2020 0.46 N/A N/A
BJ's Restaurants Inc. BJRI 3/31/2020 0.06 N/A N/A
Universal Display Corp. OLED 3/31/2020 0.67 N/A N/A
TrueCar Inc. TRUE 3/31/2020 -0.02 N/A N/A
Anika Therapeutics Inc. ANIK 3/31/2020 -0.08 N/A N/A
TimkenSteel Corp. TMST 3/31/2020 -0.24 N/A N/A
Solar Capital Ltd. SLRC 3/31/2020 0.42 N/A N/A
Orion Engineered Carbons S.A. OEC 3/31/2020 0.38 N/A N/A
Covanta Holding Corp. CVA 3/31/2020 -0.22 N/A N/A
Consolidated Edison Inc. ED 3/31/2020 1.41 N/A N/A
Alliant Energy Corp. LNT 3/31/2020 0.55 N/A N/A
Solar Senior Capital Ltd. SUNS 3/31/2020 0.35 N/A N/A
SailPoint Technologies Holdings Inc. SAIL 3/31/2020 -0.03 N/A N/A
Boise Cascade Co. BCC 3/31/2020 0.46 N/A N/A
Castlight Health Inc. Cl B CSLT 3/31/2020 -0.03 N/A N/A
Insulet Corp. PODD 3/31/2020 0.00 N/A N/A
Evolent Health Inc. Cl A EVH 3/31/2020 -0.13 N/A N/A
Alarm.Com Holdings Inc. ALRM 3/31/2020 0.34 N/A N/A
Penumbra Inc. PEN 3/31/2020 0.16 N/A N/A
Weingarten Realty Investors WRI 3/31/2020 0.21 N/A N/A
EnLink Midstream LLC ENLC 3/31/2020 0.04 N/A N/A
Jernigan Capital Inc. JCAP 3/31/2020 -1.60 N/A N/A
NV5 Global Inc. NVEE 3/31/2020 0.83 N/A N/A
NanoString Technologies Inc. NSTG 3/31/2020 -0.49 N/A N/A
Upland Software Inc. UPLD 3/31/2020 0.50 N/A N/A
US Ecology Inc. ECOL 3/31/2020 0.15 N/A N/A
ACADIA Pharmaceuticals Inc. ACAD 3/31/2020 -0.48 N/A N/A
Equitable Holdings Inc. EQH 3/31/2020 1.10 N/A N/A
LHC Group LHCG 3/31/2020 0.71 N/A N/A
Bonanza Creek Energy Inc. BCEI 3/31/2020 1.09 N/A N/A
Nelnet Inc. Cl A NNI 3/31/2020 1.54 N/A N/A
American Homes 4 Rent Cl A AMH 3/31/2020 0.06 N/A N/A
Tabula Rasa HealthCare Inc. TRHC 3/31/2020 0.02 N/A N/A
Accelerate Diagnostics Inc. AXDX 3/31/2020 -0.39 N/A N/A
PRA Group Inc. PRAA 3/31/2020 0.43 N/A N/A
EOG Resources Inc. EOG 3/31/2020 0.72 N/A N/A
Axon Enterprise Inc. AAXN 3/31/2020 0.17 N/A N/A
Glaukos Corp. GKOS 3/31/2020 -0.36 N/A N/A
Ritchie Bros. Auctioneers Inc. RBA 3/31/2020 0.21 N/A N/A
Coherus BioSciences Inc. CHRS 3/31/2020 0.52 N/A N/A
ICU Medical Inc. ICUI 3/31/2020 1.55 N/A N/A
Pembina Pipeline Corp. PBA 3/31/2020 0.41 N/A N/A
TPI Composites Inc. TPIC 3/31/2020 -0.32 N/A N/A
Assured Guaranty Ltd. AGO 3/31/2020 0.76 N/A N/A
Algonquin Power & Utilities Corp. AQN 3/31/2020 0.21 N/A N/A
Profound Medical Corp. PROF 3/31/2020 -0.27 N/A N/A
Cross Country Healthcare Inc. CCRN 3/31/2020 -0.01 N/A N/A
Newtek Business Services Corp. NEWT 3/31/2020 0.53 N/A N/A
Immersion Corp. IMMR 3/31/2020 -0.02 N/A N/A
UMH Properties Inc. UMH 3/31/2020 -0.07 N/A N/A
Joint Corp. JYNT 3/31/2020 0.07 N/A N/A
Luna Innovations Inc. LUNA 3/31/2020 0.03 N/A N/A
ADT Inc. ADT 3/31/2020 0.19 N/A N/A
Montage Resources Corp. MR 3/31/2020 0.00 N/A N/A
Willdan Group Inc. WLDN 3/31/2020 0.31 N/A N/A
Alphatec Holdings Inc. ATEC 3/31/2020 -0.21 N/A N/A
Falcon Minerals Corp. FLMN 3/31/2020 0.06 N/A N/A
Clean Energy Fuels Corp. CLNE 3/31/2020 -0.01 N/A N/A
Infrastructure & Energy Alternatives Inc. IEA 3/31/2020 -0.56 N/A N/A
Turtle Beach Corp. HEAR 3/31/2020 -0.30 N/A N/A
PetIQ Inc. Cl A PETQ 3/31/2020 0.19 N/A N/A
TransAct Technologies Inc. TACT 3/31/2020 -0.06 N/A N/A
Miragen Therapeutics Inc. MGEN 3/31/2020 -0.21 N/A N/A
Dynavax Technologies Corp. DVAX 3/31/2020 -0.31 N/A N/A
Hanger Inc. HNGR 3/31/2020 -0.13 N/A N/A
Rimini Street Inc. RMNI 3/31/2020 0.04 N/A N/A
Everspin Technologies Inc. MRAM 3/31/2020 -0.15 N/A N/A
Asure Software Inc. ASUR 3/31/2020 0.16 N/A N/A
Establishment Labs Holdings Inc. ESTA 3/31/2020 -0.50 N/A N/A
Athersys Inc. ATHX 3/31/2020 -0.08 N/A N/A
Kindred Biosciences Inc. KIN 3/31/2020 -0.43 N/A N/A
Amdocs Ltd. DOX 3/31/2020 1.06 N/A N/A
Roku Inc. Cl A ROKU 3/31/2020 -0.44 N/A N/A
SunPower Corp. SPWR 3/31/2020 -0.18 N/A N/A
Air Lease Corp. AL 3/31/2020 1.26 N/A N/A
Cushman & Wakefield PLC CWK 3/31/2020 0.15 N/A N/A
Flex Ltd. FLEX 3/31/2020 0.25 N/A N/A
Inphi Corp. IPHI 3/31/2020 0.48 N/A N/A
Marriott Vacations Worldwide Corp. VAC 3/31/2020 1.51 N/A N/A
StoneCastle Financial Corp. BANX 3/31/2020 0.40 N/A N/A
Stamps.com Inc. STMP 3/31/2020 0.98 N/A N/A
CubeSmart CUBE 3/31/2020 0.19 N/A N/A
B2W Companhia Digital GDR Reg S BTOOY 3/31/2020 -0.05 N/A N/A
B2W Companhia Digital GDR 144A BCGVY 3/31/2020 -0.05 N/A N/A
Company Name Symbol Fiscal Quarter EPS Forecast EPS Actual Surprise
Ricoh Co. Ltd. ADR RICOY 3/31/2020 0.18 N/A N/A
Sumitomo Corp. ADR SSUMY 3/31/2020 -0.17 N/A N/A
Meridian Bioscience Inc. VIVO 3/31/2020 0.08 N/A N/A
Suntory Beverage & Food Ltd. ADR STBFY 3/31/2020 0.18 N/A N/A
PBF Energy Inc. PBF 3/31/2020 -1.03 N/A N/A
PBF Logistics LP PBFX 3/31/2020 0.49 N/A N/A
PPL Corp. PPL 3/31/2020 0.71 N/A N/A
Archer Ltd. ARHVF 3/31/2020 -0.01 N/A N/A
Cardtronics PLC Cl A CATM 3/31/2020 0.40 N/A N/A
Northwest Natural Holding Co. NWN 3/31/2020 1.64 N/A N/A
GTT Communications Inc. GTT 3/31/2020 -0.27 N/A N/A
OTP Bank Nyrt. GDR Reg S OTPGF 3/31/2020 0.37 N/A N/A
Companhia de Saneamento Basico do Estado de Sao Paulo ADR SBS 3/31/2020 0.06 N/A N/A
NSK Ltd. ADR NPSKY 3/31/2020 0.14 N/A N/A
Broadridge Financial Solutions Inc. BR 3/31/2020 1.75 N/A N/A
Nippon Shokubai Co. Ltd. ADR NPSHY 3/31/2020 0.30 N/A N/A
Hoya Corp. ADR HOCPY 3/31/2020 0.76 N/A N/A
Hoya Corp. HOCPF 3/31/2020 0.76 N/A N/A
Capcom Co. Ltd. ADR CCOEY 3/31/2020 0.21 N/A N/A
MDU Resources Group Inc. MDU 3/31/2020 0.22 N/A N/A
Teijin Ltd. ADR TINLY 3/31/2020 0.39 N/A N/A
Mitsubishi Corp. ADR MSBHY 3/31/2020 0.40 N/A N/A
Itochu Corp. ADR ITOCY 3/31/2020 0.93 N/A N/A
O2Micro International Ltd. ADR OIIM 3/31/2020 -0.06 N/A N/A
Siemens AG ADR SIEGY 3/31/2020 0.56 N/A N/A
ING Groep N.V. ADR ING 3/31/2020 0.16 N/A N/A
Nippon Steel Corp. ADR NPSCY 3/31/2020 -0.79 N/A N/A
Nomura Holdings Inc. ADR NMR 3/31/2020 0.12 N/A N/A
Minebea Mitsumi Inc. ADR MNBEY 3/31/2020 0.66 N/A N/A
HMS Holdings Corp. HMSY 3/31/2020 0.25 N/A N/A
Noble Energy Inc. NBL 3/31/2020 0.00 N/A N/A
Noble Midstream Partners LP NBLX 3/31/2020 0.59 N/A N/A
Brookfield Infrastructure Partners L.P. BIP 3/31/2020 0.13 N/A N/A
Bloomin' Brands Inc. BLMN 3/31/2020 0.34 N/A N/A
Avista Corp. AVA 3/31/2020 0.66 N/A N/A
Construction Partners Inc. Cl A ROAD 3/31/2020 0.06 N/A N/A
Domtar Corp. UFS 3/31/2020 -0.21 N/A N/A
Exelon Corp. EXC 3/31/2020 0.85 N/A N/A
New Home Co. Inc. NWHM 3/31/2020 -0.10 N/A N/A
Essent Group Ltd. ESNT 3/31/2020 1.45 N/A N/A
Tenneco Inc. Cl A TEN 3/31/2020 -0.83 N/A N/A
Pinnacle West Capital Corp. PNW 3/31/2020 0.15 N/A N/A
Harsco Corp. HSC 3/31/2020 0.02 N/A N/A
Enerplus Corp. ERF 3/31/2020 0.07 N/A N/A
Outfront Media Inc. OUT 3/31/2020 0.03 N/A N/A
Interface Inc. TILE 3/31/2020 0.21 N/A N/A
SeaWorld Entertainment Inc. SEAS 3/31/2020 -0.64 N/A N/A
Fly Leasing Ltd. ADR FLY 3/31/2020 1.45 N/A N/A
E.W. Scripps Co. Cl A SSP 3/31/2020 -0.08 N/A N/A
inTEST Corp. INTT 3/31/2020 -0.08 N/A N/A
Tecnoglass Inc. TGLS 3/31/2020 0.14 N/A N/A
Global Partners LP GLP 3/31/2020 0.10 N/A N/A
Uniti Group Inc. UNIT 3/31/2020 -0.01 N/A N/A
Kimco Realty Corp. KIM 3/31/2020 0.18 N/A N/A
Spire Inc. SR 3/31/2020 2.96 N/A N/A
Carrier Global Corp. CARR 3/31/2020 0.36 N/A N/A
Monroe Capital Corp. MRCC 3/31/2020 0.35 N/A N/A